Observation data for Menard on 08/15/2019      Previous  Date  Next       Current Mesonet Observations  Soil Data  Daily Summary Page  Observations in Plain Language
KMD1 150500Z 02001KT 24/19 A301 RMK A01 T02360190  RH  075%=      5-min Rain = 0
KMD1 150501Z 02001KT 24/19 A301 RMK A01 T02360190  RH  075%=      5-min Rain = 0
KMD1 150502Z 01001KT 24/19 A301 RMK A01 T02350189  RH  075%=      5-min Rain = 0
KMD1 150503Z 36001KT 24/19 A301 RMK A01 T02350189  RH  076%=      5-min Rain = 0
KMD1 150504Z 36002KT 24/19 A301 RMK A01 T02350189  RH  076%=      5-min Rain = 0
KMD1 150505Z 00002KT 24/19 A301 RMK A01 T02350189  RH  076%=      5-min Rain = 0
KMD1 150506Z 01001KT 23/19 A301 RMK A01 T02340189  RH  076%=      5-min Rain = 0
KMD1 150507Z 03001KT 23/19 A301 RMK A01 T02340190  RH  076%=      5-min Rain = 0
KMD1 150508Z 03001KT 24/19 A301 RMK A01 T02350190  RH  076%=      5-min Rain = 0
KMD1 150509Z 04000KT 24/19 A301 RMK A01 T02350190  RH  076%=      5-min Rain = 0
KMD1 150510Z 00000KT 23/19 A301 RMK A01 T02340189  RH  076%=      5-min Rain = 0
KMD1 150511Z 00000KT 23/19 A301 RMK A01 T02340190  RH  076%=      5-min Rain = 0
KMD1 150512Z 00000KT 23/19 A301 RMK A01 T02340189  RH  076%=      5-min Rain = 0
KMD1 150513Z 00000KT 23/19 A301 RMK A01 T02340190  RH  076%=      5-min Rain = 0
KMD1 150514Z 00000KT 23/19 A3011 RMK A01 T02340190  RH  076%=      5-min Rain = 0
KMD1 150515Z 00000KT 23/19 A3011 RMK A01 T02330190  RH  077%=      5-min Rain = 0
KMD1 150516Z 00000KT 23/19 A3011 RMK A01 T02330190  RH  077%=      5-min Rain = 0
KMD1 150517Z 00000KT 23/19 A3011 RMK A01 T02330189  RH  077%=      5-min Rain = 0
KMD1 150518Z 00000KT 23/19 A3011 RMK A01 T02320189  RH  077%=      5-min Rain = 0
KMD1 150519Z 00000KT 23/19 A3011 RMK A01 T02310189  RH  077%=      5-min Rain = 0
KMD1 150520Z 00000KT 23/19 A3011 RMK A01 T02310189  RH  077%=      5-min Rain = 0
KMD1 150521Z 26001KT 23/19 A3011 RMK A01 T02300189  RH  077%=      5-min Rain = 0
KMD1 150522Z 26001KT 23/19 A3011 RMK A01 T02300189  RH  078%=      5-min Rain = 0
KMD1 150523Z 27001KT 23/19 A3011 RMK A01 T02290189  RH  078%=      5-min Rain = 0
KMD1 150524Z 28001KT 23/19 A3011 RMK A01 T02290189  RH  078%=      5-min Rain = 0
KMD1 150525Z 28002KT 23/19 A3011 RMK A01 T02280188  RH  078%=      5-min Rain = 0
KMD1 150526Z 30002KT 23/19 A3011 RMK A01 T02270188  RH  078%=      5-min Rain = 0
KMD1 150527Z 31002KT 23/19 A3011 RMK A01 T02260189  RH  079%=      5-min Rain = 0
KMD1 150528Z 31001KT 23/19 A3011 RMK A01 T02260190  RH  080%=      5-min Rain = 0
KMD1 150529Z 31001KT 23/19 A3011 RMK A01 T02250191  RH  081%=      5-min Rain = 0
KMD1 150530Z 31000KT 23/19 A3011 RMK A01 T02250190  RH  081%=      5-min Rain = 0
KMD1 150531Z 00000KT 23/19 A3011 RMK A01 T02250191  RH  081%=      5-min Rain = 0
KMD1 150532Z 00000KT 22/19 A3011 RMK A01 T02240192  RH  082%=      5-min Rain = 0
KMD1 150533Z 00000KT 22/19 A301 RMK A01 T02240192  RH  082%=      5-min Rain = 0
KMD1 150534Z 00000KT 23/19 A301 RMK A01 T02250193  RH  082%=      5-min Rain = 0
KMD1 150535Z 00000KT 22/19 A301 RMK A01 T02240192  RH  082%=      5-min Rain = 0
KMD1 150536Z 00000KT 23/19 A301 RMK A01 T02250192  RH  082%=      5-min Rain = 0
KMD1 150537Z 00000KT 23/19 A301 RMK A01 T02250191  RH  081%=      5-min Rain = 0
KMD1 150538Z 11000KT 23/19 A301 RMK A01 T02250189  RH  080%=      5-min Rain = 0
KMD1 150539Z 10001KT 22/19 A301 RMK A01 T02230188  RH  081%=      5-min Rain = 0
KMD1 150540Z 09001KT 22/19 A301 RMK A01 T02220188  RH  081%=      5-min Rain = 0
KMD1 150541Z 09000KT 22/19 A3011 RMK A01 T02200186  RH  081%=      5-min Rain = 0
KMD1 150542Z 00000KT 22/19 A3011 RMK A01 T02200187  RH  082%=      5-min Rain = 0
KMD1 150543Z 00000KT 22/19 A3011 RMK A01 T02190188  RH  083%=      5-min Rain = 0
KMD1 150544Z 34000KT 22/19 A3011 RMK A01 T02200189  RH  083%=      5-min Rain = 0
KMD1 150545Z 33001KT 22/19 A3011 RMK A01 T02210190  RH  083%=      5-min Rain = 0
KMD1 150546Z 33001KT 22/19 A301 RMK A01 T02220191  RH  083%=      5-min Rain = 0
KMD1 150547Z 34001KT 22/19 A301 RMK A01 T02220190  RH  082%=      5-min Rain = 0
KMD1 150548Z 35001KT 22/19 A301 RMK A01 T02220190  RH  082%=      5-min Rain = 0
KMD1 150549Z 34001KT 22/19 A301 RMK A01 T02220189  RH  082%=      5-min Rain = 0
KMD1 150550Z 34001KT 22/19 A301 RMK A01 T02220190  RH  082%=      5-min Rain = 0
KMD1 150551Z 34000KT 22/19 A301 RMK A01 T02220189  RH  082%=      5-min Rain = 0
KMD1 150552Z 00000KT 22/19 A301 RMK A01 T02210189  RH  082%=      5-min Rain = 0
KMD1 150553Z 00000KT 22/19 A301 RMK A01 T02210190  RH  082%=      5-min Rain = 0
KMD1 150554Z 00000KT 22/19 A301 RMK A01 T02210190  RH  083%=      5-min Rain = 0
KMD1 150555Z 00000KT 22/19 A301 RMK A01 T02210190  RH  083%=      5-min Rain = 0
KMD1 150556Z 00000KT 22/19 A301 RMK A01 T02210190  RH  083%=      5-min Rain = 0
KMD1 150557Z 00000KT 22/19 A301 RMK A01 T02210190  RH  083%=      5-min Rain = 0
KMD1 150558Z 00000KT 22/19 A301 RMK A01 T02210190  RH  083%=      5-min Rain = 0
KMD1 150559Z 00000KT 22/19 A301 RMK A01 T02210189  RH  082%=      5-min Rain = 0
KMD1 150600Z 00000KT 22/19 A301 RMK A01 T02210190  RH  082%=      5-min Rain = 0
KMD1 150601Z 00000KT 22/19 A301 RMK A01 T02210190  RH  083%=      5-min Rain = 0
KMD1 150602Z 00000KT 22/19 A301 RMK A01 T02210190  RH  083%=      5-min Rain = 0
KMD1 150603Z 12001KT 22/19 A3011 RMK A01 T02210190  RH  083%=      5-min Rain = 0
KMD1 150604Z 11001KT 22/19 A3011 RMK A01 T02210190  RH  083%=      5-min Rain = 0
KMD1 150605Z 11000KT 22/19 A3011 RMK A01 T02210190  RH  083%=      5-min Rain = 0
KMD1 150606Z 00000KT 22/19 A3011 RMK A01 T02210191  RH  083%=      5-min Rain = 0
KMD1 150607Z 00000KT 22/19 A301 RMK A01 T02210190  RH  083%=      5-min Rain = 0
KMD1 150608Z 00000KT 22/19 A301 RMK A01 T02210190  RH  082%=      5-min Rain = 0
KMD1 150609Z 00000KT 22/19 A301 RMK A01 T02210189  RH  082%=      5-min Rain = 0
KMD1 150610Z 00000KT 22/19 A301 RMK A01 T02210189  RH  082%=      5-min Rain = 0
KMD1 150611Z 00000KT 22/19 A301 RMK A01 T02210188  RH  081%=      5-min Rain = 0
KMD1 150612Z 00000KT 22/19 A301 RMK A01 T02210188  RH  081%=      5-min Rain = 0
KMD1 150613Z 00000KT 22/19 A301 RMK A01 T02210189  RH  082%=      5-min Rain = 0
KMD1 150614Z 00000KT 22/19 A301 RMK A01 T02200189  RH  082%=      5-min Rain = 0
KMD1 150615Z 00000KT 22/19 A301 RMK A01 T02200188  RH  082%=      5-min Rain = 0
KMD1 150616Z 00000KT 22/19 A301 RMK A01 T02190189  RH  083%=      5-min Rain = 0
KMD1 150617Z 00000KT 22/19 A301 RMK A01 T02190190  RH  083%=      5-min Rain = 0
KMD1 150618Z 00000KT 22/19 A301 RMK A01 T02180189  RH  083%=      5-min Rain = 0
KMD1 150619Z 00000KT 22/19 A301 RMK A01 T02180189  RH  083%=      5-min Rain = 0
KMD1 150620Z 00000KT 22/19 A301 RMK A01 T02180188  RH  083%=      5-min Rain = 0
KMD1 150621Z 00000KT 22/19 A301 RMK A01 T02180188  RH  083%=      5-min Rain = 0
KMD1 150622Z 00000KT 22/19 A301 RMK A01 T02180188  RH  083%=      5-min Rain = 0
KMD1 150623Z 00000KT 22/19 A301 RMK A01 T02190188  RH  083%=      5-min Rain = 0
KMD1 150624Z 00000KT 22/19 A301 RMK A01 T02180188  RH  083%=      5-min Rain = 0
KMD1 150625Z 00000KT 22/19 A301 RMK A01 T02190188  RH  083%=      5-min Rain = 0
KMD1 150626Z 00000KT 22/19 A301 RMK A01 T02180187  RH  083%=      5-min Rain = 0
KMD1 150627Z 00000KT 22/19 A301 RMK A01 T02190188  RH  083%=      5-min Rain = 0
KMD1 150628Z 00000KT 22/19 A301 RMK A01 T02190189  RH  083%=      5-min Rain = 0
KMD1 150629Z 00000KT 22/19 A301 RMK A01 T02190189  RH  083%=      5-min Rain = 0
KMD1 150630Z 00000KT 22/19 A301 RMK A01 T02190188  RH  082%=      5-min Rain = 0
KMD1 150631Z 23000KT 22/19 A301 RMK A01 T02190188  RH  082%=      5-min Rain = 0
KMD1 150632Z 23001KT 22/19 A301 RMK A01 T02190188  RH  083%=      5-min Rain = 0
KMD1 150633Z 24001KT 22/19 A301 RMK A01 T02190189  RH  083%=      5-min Rain = 0
KMD1 150634Z 25000KT 22/19 A301 RMK A01 T02180188  RH  083%=      5-min Rain = 0
KMD1 150635Z 00000KT 22/19 A301 RMK A01 T02170186  RH  083%=      5-min Rain = 0
KMD1 150636Z 00000KT 22/19 A301 RMK A01 T02150185  RH  083%=      5-min Rain = 0
KMD1 150637Z 00000KT 21/19 A301 RMK A01 T02140185  RH  083%=      5-min Rain = 0
KMD1 150638Z 31000KT 21/19 A301 RMK A01 T02130185  RH  084%=      5-min Rain = 0
KMD1 150639Z 30001KT 21/19 A301 RMK A01 T02130186  RH  085%=      5-min Rain = 0
KMD1 150640Z 29001KT 21/19 A301 RMK A01 T02130187  RH  085%=      5-min Rain = 0
KMD1 150641Z 29001KT 21/19 A301 RMK A01 T02130188  RH  086%=      5-min Rain = 0
KMD1 150642Z 29000KT 21/19 A301 RMK A01 T02130188  RH  086%=      5-min Rain = 0
KMD1 150643Z 00000KT 21/19 A301 RMK A01 T02130188  RH  086%=      5-min Rain = 0
KMD1 150644Z 00000KT 21/19 A301 RMK A01 T02130188  RH  086%=      5-min Rain = 0
KMD1 150645Z 27001KT 21/19 A301 RMK A01 T02140188  RH  085%=      5-min Rain = 0
KMD1 150646Z 26001KT 21/19 A301 RMK A01 T02140189  RH  085%=      5-min Rain = 0
KMD1 150647Z 26001KT 21/19 A301 RMK A01 T02140189  RH  085%=      5-min Rain = 0
KMD1 150648Z 27002KT 21/19 A301 RMK A01 T02140189  RH  085%=      5-min Rain = 0
KMD1 150649Z 27002KT 21/19 A301 RMK A01 T02140188  RH  085%=      5-min Rain = 0
KMD1 150650Z 27002KT 21/19 A301 RMK A01 T02140188  RH  085%=      5-min Rain = 0
KMD1 150651Z 27002KT 21/19 A301 RMK A01 T02140187  RH  085%=      5-min Rain = 0
KMD1 150652Z 28001KT 21/19 A301 RMK A01 T02130187  RH  085%=      5-min Rain = 0
KMD1 150653Z 28001KT 21/19 A301 RMK A01 T02130186  RH  085%=      5-min Rain = 0
KMD1 150654Z 28001KT 21/19 A301 RMK A01 T02130187  RH  085%=      5-min Rain = 0
KMD1 150655Z 28001KT 21/19 A301 RMK A01 T02120187  RH  086%=      5-min Rain = 0
KMD1 150656Z 28001KT 21/19 A301 RMK A01 T02120188  RH  086%=      5-min Rain = 0
KMD1 150657Z 28001KT 21/19 A301 RMK A01 T02120188  RH  086%=      5-min Rain = 0
KMD1 150658Z 28001KT 21/19 A301 RMK A01 T02120187  RH  086%=      5-min Rain = 0
KMD1 150659Z 28001KT 21/19 A301 RMK A01 T02120187  RH  086%=      5-min Rain = 0
KMD1 150700Z 27001KT 21/19 A301 RMK A01 T02120187  RH  086%=      5-min Rain = 0
KMD1 150701Z 27002KT 21/19 A301 RMK A01 T02120188  RH  086%=      5-min Rain = 0
KMD1 150702Z 26002KT 21/19 A301 RMK A01 T02110187  RH  086%=      5-min Rain = 0
KMD1 150703Z 26002KT 21/19 A301 RMK A01 T02110187  RH  086%=      5-min Rain = 0
KMD1 150704Z 26002KT 21/19 A301 RMK A01 T02110188  RH  086%=      5-min Rain = 0
KMD1 150705Z 26002KT 21/19 A301 RMK A01 T02110187  RH  086%=      5-min Rain = 0
KMD1 150706Z 26002KT 21/19 A301 RMK A01 T02110187  RH  086%=      5-min Rain = 0
KMD1 150707Z 26002KT 21/19 A301 RMK A01 T02110187  RH  086%=      5-min Rain = 0
KMD1 150708Z 25002KT 21/19 A301 RMK A01 T02110187  RH  086%=      5-min Rain = 0
KMD1 150709Z 25002KT 21/19 A301 RMK A01 T02110187  RH  086%=      5-min Rain = 0
KMD1 150710Z 24002KT 21/19 A301 RMK A01 T02110187  RH  086%=      5-min Rain = 0
KMD1 150711Z 24002KT 21/19 A301 RMK A01 T02110188  RH  087%=      5-min Rain = 0
KMD1 150712Z 24002KT 21/19 A301 RMK A01 T02110189  RH  087%=      5-min Rain = 0
KMD1 150713Z 23002KT 21/19 A301 RMK A01 T02110189  RH  087%=      5-min Rain = 0
KMD1 150714Z 23002KT 21/19 A301 RMK A01 T02110189  RH  088%=      5-min Rain = 0
KMD1 150715Z 23002KT 21/19 A301 RMK A01 T02110190  RH  088%=      5-min Rain = 0
KMD1 150716Z 22002KT 21/19 A3009 RMK A01 T02110190  RH  088%=      5-min Rain = 0
KMD1 150717Z 22002KT 21/19 A3009 RMK A01 T02100189  RH  088%=      5-min Rain = 0
KMD1 150718Z 23001KT 21/19 A3009 RMK A01 T02100189  RH  088%=      5-min Rain = 0
KMD1 150719Z 23002KT 21/19 A3009 RMK A01 T02100189  RH  088%=      5-min Rain = 0
KMD1 150720Z 24002KT 21/19 A3009 RMK A01 T02100189  RH  088%=      5-min Rain = 0
KMD1 150721Z 25002KT 21/19 A3009 RMK A01 T02090188  RH  088%=      5-min Rain = 0
KMD1 150722Z 25002KT 21/19 A3009 RMK A01 T02080188  RH  088%=      5-min Rain = 0
KMD1 150723Z 25002KT 21/19 A3009 RMK A01 T02080188  RH  088%=      5-min Rain = 0
KMD1 150724Z 25002KT 21/19 A3009 RMK A01 T02070187  RH  088%=      5-min Rain = 0
KMD1 150725Z 25002KT 21/19 A3009 RMK A01 T02070188  RH  089%=      5-min Rain = 0
KMD1 150726Z 24002KT 21/19 A3009 RMK A01 T02070188  RH  089%=      5-min Rain = 0
KMD1 150727Z 25002KT 21/19 A3009 RMK A01 T02070187  RH  089%=      5-min Rain = 0
KMD1 150728Z 25002KT 21/19 A3009 RMK A01 T02070188  RH  089%=      5-min Rain = 0
KMD1 150729Z 25002KT 21/19 A3009 RMK A01 T02070188  RH  089%=      5-min Rain = 0
KMD1 150730Z 26002KT 21/19 A3009 RMK A01 T02060187  RH  089%=      5-min Rain = 0
KMD1 150731Z 26002KT 21/19 A3009 RMK A01 T02050186  RH  089%=      5-min Rain = 0
KMD1 150732Z 25002KT 21/19 A3009 RMK A01 T02050185  RH  088%=      5-min Rain = 0
KMD1 150733Z 25002KT 20/19 A3009 RMK A01 T02040185  RH  089%=      5-min Rain = 0
KMD1 150734Z 26002KT 20/19 A3009 RMK A01 T02040185  RH  089%=      5-min Rain = 0
KMD1 150735Z 26002KT 20/18 A3009 RMK A01 T02030184  RH  089%=      5-min Rain = 0
KMD1 150736Z 27002KT 20/19 A3009 RMK A01 T02030185  RH  089%=      5-min Rain = 0
KMD1 150737Z 27002KT 20/19 A3009 RMK A01 T02030185  RH  089%=      5-min Rain = 0
KMD1 150738Z 28002KT 20/18 A3009 RMK A01 T02030184  RH  089%=      5-min Rain = 0
KMD1 150739Z 29002KT 20/18 A3008 RMK A01 T02030183  RH  088%=      5-min Rain = 0
KMD1 150740Z 29002KT 20/18 A3008 RMK A01 T02030183  RH  088%=      5-min Rain = 0
KMD1 150741Z 30002KT 20/18 A3008 RMK A01 T02020183  RH  088%=      5-min Rain = 0
KMD1 150742Z 30002KT 20/18 A3008 RMK A01 T02020183  RH  089%=      5-min Rain = 0
KMD1 150743Z 31002KT 20/18 A3008 RMK A01 T02030184  RH  089%=      5-min Rain = 0
KMD1 150744Z 32002KT 20/18 A3008 RMK A01 T02040184  RH  089%=      5-min Rain = 0
KMD1 150745Z 33001KT 20/19 A3008 RMK A01 T02040185  RH  089%=      5-min Rain = 0
KMD1 150746Z 34001KT 21/19 A3008 RMK A01 T02050186  RH  089%=      5-min Rain = 0
KMD1 150747Z 34001KT 21/19 A3008 RMK A01 T02060187  RH  089%=      5-min Rain = 0
KMD1 150748Z 33001KT 21/19 A3008 RMK A01 T02060186  RH  088%=      5-min Rain = 0
KMD1 150749Z 34001KT 21/19 A3008 RMK A01 T02070186  RH  088%=      5-min Rain = 0
KMD1 150750Z 32001KT 21/19 A3008 RMK A01 T02070186  RH  088%=      5-min Rain = 0
KMD1 150751Z 34001KT 21/19 A3008 RMK A01 T02070186  RH  088%=      5-min Rain = 0
KMD1 150752Z 33001KT 21/19 A3008 RMK A01 T02070186  RH  088%=      5-min Rain = 0
KMD1 150753Z 34001KT 21/19 A3008 RMK A01 T02070185  RH  087%=      5-min Rain = 0
KMD1 150754Z 34001KT 21/19 A3008 RMK A01 T02070185  RH  087%=      5-min Rain = 0
KMD1 150755Z 32000KT 21/19 A3008 RMK A01 T02060185  RH  087%=      5-min Rain = 0
KMD1 150756Z 36001KT 21/19 A3008 RMK A01 T02070185  RH  088%=      5-min Rain = 0
KMD1 150757Z 01001KT 21/19 A3009 RMK A01 T02070186  RH  088%=      5-min Rain = 0
KMD1 150758Z 02002KT 21/19 A3009 RMK A01 T02060185  RH  088%=      5-min Rain = 0
KMD1 150759Z 02001KT 21/19 A3008 RMK A01 T02060185  RH  088%=      5-min Rain = 0
KMD1 150800Z 02001KT 21/19 A3008 RMK A01 T02060185  RH  088%=      5-min Rain = 0
KMD1 150801Z 01000KT 21/19 A3008 RMK A01 T02060185  RH  088%=      5-min Rain = 0
KMD1 150802Z 02000KT 21/19 A3008 RMK A01 T02060185  RH  088%=      5-min Rain = 0
KMD1 150803Z 00000KT 21/19 A3008 RMK A01 T02060185  RH  088%=      5-min Rain = 0
KMD1 150804Z 00000KT 21/19 A3008 RMK A01 T02050185  RH  088%=      5-min Rain = 0
KMD1 150805Z 00000KT 21/19 A3008 RMK A01 T02050185  RH  088%=      5-min Rain = 0
KMD1 150806Z 00000KT 21/19 A3008 RMK A01 T02050185  RH  088%=      5-min Rain = 0
KMD1 150807Z 18001KT 21/19 A3008 RMK A01 T02050185  RH  088%=      5-min Rain = 0
KMD1 150808Z 21001KT 21/19 A3008 RMK A01 T02060185  RH  088%=      5-min Rain = 0
KMD1 150809Z 23002KT 21/19 A3008 RMK A01 T02060185  RH  088%=      5-min Rain = 0
KMD1 150810Z 24002KT 21/19 A3008 RMK A01 T02060186  RH  088%=      5-min Rain = 0
KMD1 150811Z 25003KT 21/19 A3008 RMK A01 T02060185  RH  088%=      5-min Rain = 0
KMD1 150812Z 24002KT 21/19 A3008 RMK A01 T02060185  RH  088%=      5-min Rain = 0
KMD1 150813Z 24002KT 21/19 A3008 RMK A01 T02050185  RH  088%=      5-min Rain = 0
KMD1 150814Z 23002KT 21/19 A3008 RMK A01 T02050185  RH  088%=      5-min Rain = 0
KMD1 150815Z 22002KT 21/19 A3008 RMK A01 T02050186  RH  089%=      5-min Rain = 0
KMD1 150816Z 21002KT 20/19 A3008 RMK A01 T02040186  RH  089%=      5-min Rain = 0
KMD1 150817Z 21002KT 20/19 A3008 RMK A01 T02040186  RH  089%=      5-min Rain = 0
KMD1 150818Z 21003KT 20/19 A3008 RMK A01 T02040187  RH  090%=      5-min Rain = 0
KMD1 150819Z 21003KT 20/19 A3008 RMK A01 T02040187  RH  090%=      5-min Rain = 0
KMD1 150820Z 21002KT 20/19 A3008 RMK A01 T02040187  RH  090%=      5-min Rain = 0
KMD1 150821Z 21002KT 20/19 A3008 RMK A01 T02040187  RH  090%=      5-min Rain = 0
KMD1 150822Z 21002KT 20/19 A3008 RMK A01 T02030186  RH  090%=      5-min Rain = 0
KMD1 150823Z 20002KT 20/19 A3008 RMK A01 T02030187  RH  090%=      5-min Rain = 0
KMD1 150824Z 21001KT 20/19 A3008 RMK A01 T02040187  RH  090%=      5-min Rain = 0
KMD1 150825Z 22001KT 20/19 A3008 RMK A01 T02030186  RH  090%=      5-min Rain = 0
KMD1 150826Z 23002KT 20/19 A3008 RMK A01 T02030186  RH  090%=      5-min Rain = 0
KMD1 150827Z 24002KT 20/19 A3008 RMK A01 T02020186  RH  090%=      5-min Rain = 0
KMD1 150828Z 25002KT 20/19 A3008 RMK A01 T02020186  RH  090%=      5-min Rain = 0
KMD1 150829Z 26002KT 20/19 A3008 RMK A01 T02020186  RH  090%=      5-min Rain = 0
KMD1 150830Z 26002KT 20/19 A3008 RMK A01 T02010185  RH  090%=      5-min Rain = 0
KMD1 150831Z 26002KT 20/18 A3008 RMK A01 T02000183  RH  090%=      5-min Rain = 0
KMD1 150832Z 26003KT 20/18 A3008 RMK A01 T01990183  RH  090%=      5-min Rain = 0
KMD1 150833Z 26003KT 20/18 A3008 RMK A01 T01980182  RH  090%=      5-min Rain = 0
KMD1 150834Z 25003KT 20/18 A3008 RMK A01 T01980181  RH  090%=      5-min Rain = 0
KMD1 150835Z 24003KT 20/18 A3008 RMK A01 T01970182  RH  091%=      5-min Rain = 0
KMD1 150836Z 25003KT 20/18 A3008 RMK A01 T01970183  RH  091%=      5-min Rain = 0
KMD1 150837Z 25003KT 20/18 A3008 RMK A01 T01980184  RH  091%=      5-min Rain = 0
KMD1 150838Z 23003KT 20/18 A3008 RMK A01 T01980184  RH  091%=      5-min Rain = 0
KMD1 150839Z 24003KT 20/18 A3008 RMK A01 T01980184  RH  091%=      5-min Rain = 0
KMD1 150840Z 25003KT 20/18 A3008 RMK A01 T01990184  RH  091%=      5-min Rain = 0
KMD1 150841Z 25003KT 20/18 A3008 RMK A01 T01990184  RH  091%=      5-min Rain = 0
KMD1 150842Z 25004KT 20/18 A3008 RMK A01 T01990184  RH  091%=      5-min Rain = 0
KMD1 150843Z 25004KT 20/18 A3008 RMK A01 T01990184  RH  091%=      5-min Rain = 0
KMD1 150844Z 25003KT 20/19 A3008 RMK A01 T02000185  RH  091%=      5-min Rain = 0
KMD1 150845Z 26003KT 20/18 A3008 RMK A01 T02000184  RH  091%=      5-min Rain = 0
KMD1 150846Z 25003KT 20/18 A3008 RMK A01 T02000183  RH  090%=      5-min Rain = 0
KMD1 150847Z 25003KT 20/18 A3008 RMK A01 T01990183  RH  090%=      5-min Rain = 0
KMD1 150848Z 26003KT 20/18 A3008 RMK A01 T01990183  RH  090%=      5-min Rain = 0
KMD1 150849Z 26002KT 20/18 A3008 RMK A01 T01990182  RH  090%=      5-min Rain = 0
KMD1 150850Z 25002KT 20/18 A3008 RMK A01 T01980182  RH  090%=      5-min Rain = 0
KMD1 150851Z 25003KT 20/18 A3008 RMK A01 T01980182  RH  090%=      5-min Rain = 0
KMD1 150852Z 24003KT 20/18 A3008 RMK A01 T01980183  RH  091%=      5-min Rain = 0
KMD1 150853Z 25002KT 20/18 A3008 RMK A01 T01980183  RH  091%=      5-min Rain = 0
KMD1 150854Z 27002KT 20/18 A3008 RMK A01 T01980183  RH  091%=      5-min Rain = 0
KMD1 150855Z 27002KT 20/18 A3008 RMK A01 T01990183  RH  091%=      5-min Rain = 0
KMD1 150856Z 27002KT 20/18 A3008 RMK A01 T01990184  RH  091%=      5-min Rain = 0
KMD1 150857Z 26001KT 20/18 A3008 RMK A01 T02000184  RH  091%=      5-min Rain = 0
KMD1 150858Z 27001KT 20/18 A3008 RMK A01 T02000184  RH  091%=      5-min Rain = 0
KMD1 150859Z 26001KT 20/18 A3008 RMK A01 T02000184  RH  091%=      5-min Rain = 0
KMD1 150900Z 25001KT 20/18 A3008 RMK A01 T02000184  RH  091%=      5-min Rain = 0
KMD1 150901Z 24001KT 20/18 A3008 RMK A01 T02000184  RH  091%=      5-min Rain = 0
KMD1 150902Z 24002KT 20/18 A3008 RMK A01 T02000184  RH  091%=      5-min Rain = 0
KMD1 150903Z 23002KT 20/18 A3008 RMK A01 T02000184  RH  091%=      5-min Rain = 0
KMD1 150904Z 23001KT 20/19 A3008 RMK A01 T02000185  RH  091%=      5-min Rain = 0
KMD1 150905Z 23001KT 20/19 A3008 RMK A01 T02000185  RH  091%=      5-min Rain = 0
KMD1 150906Z 24001KT 20/19 A3007 RMK A01 T02000185  RH  091%=      5-min Rain = 0
KMD1 150907Z 24002KT 20/19 A3007 RMK A01 T02000185  RH  091%=      5-min Rain = 0
KMD1 150908Z 24002KT 20/19 A3007 RMK A01 T02000185  RH  091%=      5-min Rain = 0
KMD1 150909Z 25001KT 20/18 A3007 RMK A01 T02000184  RH  091%=      5-min Rain = 0
KMD1 150910Z 25002KT 20/18 A3007 RMK A01 T02000184  RH  091%=      5-min Rain = 0
KMD1 150911Z 26002KT 20/18 A3007 RMK A01 T02000184  RH  090%=      5-min Rain = 0
KMD1 150912Z 26002KT 20/18 A3007 RMK A01 T02000184  RH  090%=      5-min Rain = 0
KMD1 150913Z 26002KT 20/18 A3007 RMK A01 T02010184  RH  090%=      5-min Rain = 0
KMD1 150914Z 25002KT 20/18 A3007 RMK A01 T02000183  RH  090%=      5-min Rain = 0
KMD1 150915Z 25001KT 20/18 A3007 RMK A01 T02000183  RH  090%=      5-min Rain = 0
KMD1 150916Z 25001KT 20/18 A3007 RMK A01 T01990183  RH  090%=      5-min Rain = 0
KMD1 150917Z 25001KT 20/18 A3007 RMK A01 T01990183  RH  090%=      5-min Rain = 0
KMD1 150918Z 25002KT 20/18 A3007 RMK A01 T01990183  RH  090%=      5-min Rain = 0
KMD1 150919Z 25003KT 20/18 A3007 RMK A01 T01990183  RH  090%=      5-min Rain = 0
KMD1 150920Z 25003KT 20/18 A3007 RMK A01 T01990183  RH  090%=      5-min Rain = 0
KMD1 150921Z 25002KT 20/18 A3007 RMK A01 T01980182  RH  090%=      5-min Rain = 0
KMD1 150922Z 25002KT 20/18 A3007 RMK A01 T01980182  RH  090%=      5-min Rain = 0
KMD1 150923Z 24002KT 20/18 A3007 RMK A01 T01970182  RH  091%=      5-min Rain = 0
KMD1 150924Z 25002KT 20/18 A3007 RMK A01 T01970182  RH  091%=      5-min Rain = 0
KMD1 150925Z 26002KT 20/18 A3007 RMK A01 T01970182  RH  091%=      5-min Rain = 0
KMD1 150926Z 27002KT 20/18 A3007 RMK A01 T01970183  RH  091%=      5-min Rain = 0
KMD1 150927Z 27001KT 20/18 A3007 RMK A01 T01970183  RH  091%=      5-min Rain = 0
KMD1 150928Z 27000KT 20/18 A3007 RMK A01 T01970182  RH  091%=      5-min Rain = 0
KMD1 150929Z 27001KT 20/18 A3007 RMK A01 T01970182  RH  091%=      5-min Rain = 0
KMD1 150930Z 27002KT 20/18 A3007 RMK A01 T01960181  RH  091%=      5-min Rain = 0
KMD1 150931Z 27002KT 20/18 A3007 RMK A01 T01960182  RH  091%=      5-min Rain = 0
KMD1 150932Z 27003KT 20/18 A3007 RMK A01 T01960182  RH  092%=      5-min Rain = 0
KMD1 150933Z 27003KT 20/18 A3007 RMK A01 T01960182  RH  092%=      5-min Rain = 0
KMD1 150934Z 27004KT 20/18 A3007 RMK A01 T01960182  RH  092%=      5-min Rain = 0
KMD1 150935Z 27004KT 20/18 A3007 RMK A01 T01960182  RH  092%=      5-min Rain = 0
KMD1 150936Z 27004KT 20/18 A3007 RMK A01 T01960182  RH  092%=      5-min Rain = 0
KMD1 150937Z 27004KT 20/18 A3007 RMK A01 T01960181  RH  092%=      5-min Rain = 0
KMD1 150938Z 27004KT 20/18 A3007 RMK A01 T01960181  RH  091%=      5-min Rain = 0
KMD1 150939Z 27003KT 20/18 A3007 RMK A01 T01960181  RH  091%=      5-min Rain = 0
KMD1 150940Z 27003KT 20/18 A3007 RMK A01 T01960181  RH  091%=      5-min Rain = 0
KMD1 150941Z 27003KT 20/18 A3007 RMK A01 T01950181  RH  091%=      5-min Rain = 0
KMD1 150942Z 26002KT 20/18 A3007 RMK A01 T01950181  RH  092%=      5-min Rain = 0
KMD1 150943Z 27002KT 20/18 A3007 RMK A01 T01950182  RH  092%=      5-min Rain = 0
KMD1 150944Z 27001KT 20/18 A3007 RMK A01 T01950182  RH  092%=      5-min Rain = 0
KMD1 150945Z 25001KT 20/18 A3007 RMK A01 T01950182  RH  092%=      5-min Rain = 0
KMD1 150946Z 26001KT 20/18 A3007 RMK A01 T01950182  RH  092%=      5-min Rain = 0
KMD1 150947Z 26001KT 20/18 A3007 RMK A01 T01950182  RH  092%=      5-min Rain = 0
KMD1 150948Z 00000KT 20/18 A3007 RMK A01 T01950181  RH  092%=      5-min Rain = 0
KMD1 150949Z 00000KT 20/18 A3007 RMK A01 T01950181  RH  092%=      5-min Rain = 0
KMD1 150950Z 26000KT 20/18 A3007 RMK A01 T01950182  RH  092%=      5-min Rain = 0
KMD1 150951Z 27000KT 20/18 A3007 RMK A01 T01950182  RH  092%=      5-min Rain = 0
KMD1 150952Z 27001KT 20/18 A3007 RMK A01 T01950182  RH  092%=      5-min Rain = 0
KMD1 150953Z 27001KT 20/18 A3007 RMK A01 T01950182  RH  092%=      5-min Rain = 0
KMD1 150954Z 26001KT 20/18 A3007 RMK A01 T01960182  RH  092%=      5-min Rain = 0
KMD1 150955Z 26002KT 20/18 A3007 RMK A01 T01950182  RH  092%=      5-min Rain = 0
KMD1 150956Z 25002KT 20/18 A3007 RMK A01 T01950182  RH  092%=      5-min Rain = 0
KMD1 150957Z 25002KT 20/18 A3007 RMK A01 T01960182  RH  092%=      5-min Rain = 0
KMD1 150958Z 25001KT 20/18 A3007 RMK A01 T01960182  RH  092%=      5-min Rain = 0
KMD1 150959Z 24001KT 20/18 A3007 RMK A01 T01950182  RH  092%=      5-min Rain = 0
KMD1 151000Z 24000KT 20/18 A3007 RMK A01 T01950182  RH  092%=      5-min Rain = 0
KMD1 151001Z 00000KT 20/18 A3007 RMK A01 T01960182  RH  092%=      5-min Rain = 0
KMD1 151002Z 00000KT 20/18 A3007 RMK A01 T01950181  RH  092%=      5-min Rain = 0
KMD1 151003Z 00000KT 20/18 A3007 RMK A01 T01950181  RH  092%=      5-min Rain = 0
KMD1 151004Z 24000KT 20/18 A3007 RMK A01 T01950182  RH  092%=      5-min Rain = 0
KMD1 151005Z 00000KT 20/18 A3007 RMK A01 T01950182  RH  092%=      5-min Rain = 0
KMD1 151006Z 27000KT 19/18 A3007 RMK A01 T01940181  RH  092%=      5-min Rain = 0
KMD1 151007Z 27000KT 19/18 A3007 RMK A01 T01940181  RH  092%=      5-min Rain = 0
KMD1 151008Z 00000KT 19/18 A3007 RMK A01 T01940181  RH  092%=      5-min Rain = 0
KMD1 151009Z 00000KT 19/18 A3007 RMK A01 T01940180  RH  092%=      5-min Rain = 0
KMD1 151010Z 00000KT 19/18 A3007 RMK A01 T01940181  RH  092%=      5-min Rain = 0
KMD1 151011Z 00000KT 19/18 A3007 RMK A01 T01940181  RH  092%=      5-min Rain = 0
KMD1 151012Z 00000KT 19/18 A3007 RMK A01 T01940182  RH  093%=      5-min Rain = 0
KMD1 151013Z 00000KT 19/18 A3008 RMK A01 T01940182  RH  093%=      5-min Rain = 0
KMD1 151014Z 13000KT 19/18 A3008 RMK A01 T01940182  RH  093%=      5-min Rain = 0
KMD1 151015Z 13001KT 19/18 A3008 RMK A01 T01940182  RH  093%=      5-min Rain = 0
KMD1 151016Z 15001KT 19/18 A3008 RMK A01 T01940182  RH  093%=      5-min Rain = 0
KMD1 151017Z 17002KT 19/18 A3007 RMK A01 T01940183  RH  093%=      5-min Rain = 0
KMD1 151018Z 18002KT 19/18 A3007 RMK A01 T01940183  RH  093%=      5-min Rain = 0
KMD1 151019Z 18002KT 19/18 A3007 RMK A01 T01940182  RH  093%=      5-min Rain = 0
KMD1 151020Z 18001KT 19/18 A3008 RMK A01 T01940182  RH  093%=      5-min Rain = 0
KMD1 151021Z 17001KT 19/18 A3008 RMK A01 T01940182  RH  093%=      5-min Rain = 0
KMD1 151022Z 17000KT 19/18 A3008 RMK A01 T01930181  RH  093%=      5-min Rain = 0
KMD1 151023Z 00000KT 19/18 A3008 RMK A01 T01930181  RH  093%=      5-min Rain = 0
KMD1 151024Z 00000KT 19/18 A3008 RMK A01 T01930181  RH  093%=      5-min Rain = 0
KMD1 151025Z 00000KT 19/18 A3008 RMK A01 T01930181  RH  093%=      5-min Rain = 0
KMD1 151026Z 00000KT 19/18 A3008 RMK A01 T01930181  RH  093%=      5-min Rain = 0
KMD1 151027Z 25001KT 19/18 A3008 RMK A01 T01930181  RH  093%=      5-min Rain = 0
KMD1 151028Z 25001KT 19/18 A3008 RMK A01 T01930181  RH  093%=      5-min Rain = 0
KMD1 151029Z 25001KT 19/18 A3008 RMK A01 T01930181  RH  093%=      5-min Rain = 0
KMD1 151030Z 24001KT 19/18 A3008 RMK A01 T01920179  RH  092%=      5-min Rain = 0
KMD1 151031Z 24001KT 19/18 A3007 RMK A01 T01910179  RH  093%=      5-min Rain = 0
KMD1 151032Z 23002KT 19/18 A3007 RMK A01 T01920180  RH  093%=      5-min Rain = 0
KMD1 151033Z 22001KT 19/18 A3007 RMK A01 T01910180  RH  093%=      5-min Rain = 0
KMD1 151034Z 21002KT 19/18 A3007 RMK A01 T01910181  RH  093%=      5-min Rain = 0
KMD1 151035Z 22002KT 19/18 A3007 RMK A01 T01920181  RH  094%=      5-min Rain = 0
KMD1 151036Z 22002KT 19/18 A3007 RMK A01 T01920182  RH  094%=      5-min Rain = 0
KMD1 151037Z 23002KT 19/18 A3007 RMK A01 T01920182  RH  094%=      5-min Rain = 0
KMD1 151038Z 23002KT 19/18 A3007 RMK A01 T01930182  RH  093%=      5-min Rain = 0
KMD1 151039Z 23002KT 19/18 A3007 RMK A01 T01920182  RH  093%=      5-min Rain = 0
KMD1 151040Z 23002KT 19/18 A3007 RMK A01 T01920181  RH  093%=      5-min Rain = 0
KMD1 151041Z 23001KT 19/18 A3007 RMK A01 T01930182  RH  093%=      5-min Rain = 0
KMD1 151042Z 23001KT 19/18 A3007 RMK A01 T01930182  RH  093%=      5-min Rain = 0
KMD1 151043Z 23001KT 19/18 A3007 RMK A01 T01930182  RH  093%=      5-min Rain = 0
KMD1 151044Z 23001KT 19/18 A3007 RMK A01 T01930181  RH  093%=      5-min Rain = 0
KMD1 151045Z 23001KT 19/18 A3007 RMK A01 T01920181  RH  093%=      5-min Rain = 0
KMD1 151046Z 24001KT 19/18 A3007 RMK A01 T01920180  RH  093%=      5-min Rain = 0
KMD1 151047Z 24001KT 19/18 A3007 RMK A01 T01910180  RH  093%=      5-min Rain = 0
KMD1 151048Z 24001KT 19/18 A3007 RMK A01 T01910179  RH  093%=      5-min Rain = 0
KMD1 151049Z 24001KT 19/18 A3007 RMK A01 T01900178  RH  092%=      5-min Rain = 0
KMD1 151050Z 24001KT 19/18 A3007 RMK A01 T01900178  RH  092%=      5-min Rain = 0
KMD1 151051Z 24001KT 19/18 A3007 RMK A01 T01900178  RH  093%=      5-min Rain = 0
KMD1 151052Z 22001KT 19/18 A3007 RMK A01 T01900178  RH  093%=      5-min Rain = 0
KMD1 151053Z 21001KT 19/18 A3007 RMK A01 T01900178  RH  093%=      5-min Rain = 0
KMD1 151054Z 20001KT 19/18 A3007 RMK A01 T01890178  RH  093%=      5-min Rain = 0
KMD1 151055Z 20001KT 19/18 A3007 RMK A01 T01900178  RH  093%=      5-min Rain = 0
KMD1 151056Z 20001KT 19/18 A3007 RMK A01 T01900179  RH  093%=      5-min Rain = 0
KMD1 151057Z 19001KT 19/18 A3007 RMK A01 T01900179  RH  093%=      5-min Rain = 0
KMD1 151058Z 19001KT 19/18 A3007 RMK A01 T01890179  RH  093%=      5-min Rain = 0
KMD1 151059Z 22001KT 19/18 A3007 RMK A01 T01900179  RH  093%=      5-min Rain = 0
KMD1 151100Z 24001KT 19/18 A3007 RMK A01 T01900179  RH  093%=      5-min Rain = 0
KMD1 151101Z 26002KT 19/18 A3007 RMK A01 T01900179  RH  094%=      5-min Rain = 0
KMD1 151102Z 26002KT 19/18 A3007 RMK A01 T01900179  RH  094%=      5-min Rain = 0
KMD1 151103Z 27002KT 19/18 A3007 RMK A01 T01890179  RH  093%=      5-min Rain = 0
KMD1 151104Z 27002KT 19/18 A3007 RMK A01 T01890178  RH  093%=      5-min Rain = 0
KMD1 151105Z 27002KT 19/18 A3007 RMK A01 T01880177  RH  093%=      5-min Rain = 0
KMD1 151106Z 26002KT 19/18 A3007 RMK A01 T01870176  RH  093%=      5-min Rain = 0
KMD1 151107Z 25001KT 19/18 A3007 RMK A01 T01870176  RH  093%=      5-min Rain = 0
KMD1 151108Z 24001KT 19/18 A3007 RMK A01 T01870176  RH  093%=      5-min Rain = 0
KMD1 151109Z 24001KT 19/18 A3007 RMK A01 T01870177  RH  094%=      5-min Rain = 0
KMD1 151110Z 23001KT 19/18 A3007 RMK A01 T01870177  RH  094%=      5-min Rain = 0
KMD1 151111Z 23001KT 19/18 A3007 RMK A01 T01870177  RH  094%=      5-min Rain = 0
KMD1 151112Z 24001KT 19/18 A3007 RMK A01 T01880178  RH  094%=      5-min Rain = 0
KMD1 151113Z 24001KT 19/18 A3007 RMK A01 T01880178  RH  094%=      5-min Rain = 0
KMD1 151114Z 25002KT 19/18 A3007 RMK A01 T01880179  RH  094%=      5-min Rain = 0
KMD1 151115Z 25002KT 19/18 A3007 RMK A01 T01880178  RH  094%=      5-min Rain = 0
KMD1 151116Z 25002KT 19/18 A3007 RMK A01 T01880179  RH  094%=      5-min Rain = 0
KMD1 151117Z 26002KT 19/18 A3007 RMK A01 T01880179  RH  094%=      5-min Rain = 0
KMD1 151118Z 27002KT 19/18 A3007 RMK A01 T01880178  RH  094%=      5-min Rain = 0
KMD1 151119Z 27001KT 19/18 A3007 RMK A01 T01880177  RH  094%=      5-min Rain = 0
KMD1 151120Z 28002KT 19/18 A3007 RMK A01 T01870176  RH  093%=      5-min Rain = 0
KMD1 151121Z 29002KT 19/18 A3007 RMK A01 T01870176  RH  093%=      5-min Rain = 0
KMD1 151122Z 29002KT 19/18 A3007 RMK A01 T01860176  RH  094%=      5-min Rain = 0
KMD1 151123Z 29002KT 19/18 A3007 RMK A01 T01860176  RH  094%=      5-min Rain = 0
KMD1 151124Z 29003KT 19/18 A3007 RMK A01 T01870177  RH  094%=      5-min Rain = 0
KMD1 151125Z 29003KT 19/18 A3007 RMK A01 T01870178  RH  094%=      5-min Rain = 0
KMD1 151126Z 29003KT 19/18 A3007 RMK A01 T01880178  RH  094%=      5-min Rain = 0
KMD1 151127Z 30003KT 19/18 A3007 RMK A01 T01880178  RH  094%=      5-min Rain = 0
KMD1 151128Z 30003KT 19/18 A3007 RMK A01 T01880178  RH  094%=      5-min Rain = 0
KMD1 151129Z 30002KT 19/18 A3007 RMK A01 T01870178  RH  094%=      5-min Rain = 0
KMD1 151130Z 30001KT 19/18 A3007 RMK A01 T01880178  RH  094%=      5-min Rain = 0
KMD1 151131Z 30001KT 19/18 A3007 RMK A01 T01880179  RH  094%=      5-min Rain = 0
KMD1 151132Z 30000KT 19/18 A3007 RMK A01 T01880179  RH  094%=      5-min Rain = 0
KMD1 151133Z 00000KT 19/18 A3007 RMK A01 T01880179  RH  094%=      5-min Rain = 0
KMD1 151134Z 00000KT 19/18 A3007 RMK A01 T01880178  RH  094%=      5-min Rain = 0
KMD1 151135Z 00000KT 19/18 A3007 RMK A01 T01880178  RH  094%=      5-min Rain = 0
KMD1 151136Z 17000KT 19/18 A3007 RMK A01 T01880178  RH  094%=      5-min Rain = 0
KMD1 151137Z 17001KT 19/18 A3007 RMK A01 T01880179  RH  094%=      5-min Rain = 0
KMD1 151138Z 15002KT 19/18 A3007 RMK A01 T01880179  RH  094%=      5-min Rain = 0
KMD1 151139Z 15001KT 19/18 A3007 RMK A01 T01880178  RH  094%=      5-min Rain = 0
KMD1 151140Z 16001KT 19/18 A3008 RMK A01 T01880178  RH  094%=      5-min Rain = 0
KMD1 151141Z 17001KT 19/18 A3008 RMK A01 T01870178  RH  094%=      5-min Rain = 0
KMD1 151142Z 18001KT 19/18 A3008 RMK A01 T01870177  RH  094%=      5-min Rain = 0
KMD1 151143Z 18001KT 19/18 A3008 RMK A01 T01870177  RH  094%=      5-min Rain = 0
KMD1 151144Z 19001KT 19/18 A3008 RMK A01 T01860177  RH  094%=      5-min Rain = 0
KMD1 151145Z 21001KT 19/18 A3008 RMK A01 T01870177  RH  094%=      5-min Rain = 0
KMD1 151146Z 21002KT 19/18 A3007 RMK A01 T01860178  RH  095%=      5-min Rain = 0
KMD1 151147Z 22002KT 19/18 A3007 RMK A01 T01860178  RH  095%=      5-min Rain = 0
KMD1 151148Z 21002KT 19/18 A3007 RMK A01 T01870179  RH  095%=      5-min Rain = 0
KMD1 151149Z 21002KT 19/18 A3008 RMK A01 T01870179  RH  095%=      5-min Rain = 0
KMD1 151150Z 21002KT 19/18 A3008 RMK A01 T01870179  RH  095%=      5-min Rain = 0
KMD1 151151Z 21001KT 19/18 A3008 RMK A01 T01870179  RH  095%=      5-min Rain = 0
KMD1 151152Z 22001KT 19/18 A3008 RMK A01 T01870179  RH  095%=      5-min Rain = 0
KMD1 151153Z 23001KT 19/18 A3008 RMK A01 T01870179  RH  095%=      5-min Rain = 0
KMD1 151154Z 24001KT 19/18 A3008 RMK A01 T01870179  RH  095%=      5-min Rain = 0
KMD1 151155Z 25001KT 19/18 A3008 RMK A01 T01870178  RH  095%=      5-min Rain = 0
KMD1 151156Z 26001KT 19/18 A3008 RMK A01 T01870178  RH  095%=      5-min Rain = 0
KMD1 151157Z 27001KT 19/18 A3008 RMK A01 T01860177  RH  094%=      5-min Rain = 0
KMD1 151158Z 28001KT 19/18 A3008 RMK A01 T01850176  RH  094%=      5-min Rain = 0
KMD1 151159Z 27001KT 19/18 A3008 RMK A01 T01850176  RH  095%=      5-min Rain = 0
KMD1 151200Z 25001KT 19/18 A3008 RMK A01 T01850176  RH  095%=      5-min Rain = 0
KMD1 151201Z 24001KT 19/18 A3008 RMK A01 T01850176  RH  095%=      5-min Rain = 0
KMD1 151202Z 24001KT 19/18 A3008 RMK A01 T01850176  RH  095%=      5-min Rain = 0
KMD1 151203Z 24002KT 18/18 A3008 RMK A01 T01840175  RH  095%=      5-min Rain = 0
KMD1 151204Z 24002KT 18/18 A3008 RMK A01 T01840176  RH  095%=      5-min Rain = 0
KMD1 151205Z 24002KT 18/18 A3008 RMK A01 T01840176  RH  095%=      5-min Rain = 0
KMD1 151206Z 24002KT 18/18 A3008 RMK A01 T01840176  RH  095%=      5-min Rain = 0
KMD1 151207Z 25001KT 18/18 A3008 RMK A01 T01840177  RH  095%=      5-min Rain = 0
KMD1 151208Z 27001KT 18/18 A3008 RMK A01 T01840177  RH  095%=      5-min Rain = 0
KMD1 151209Z 28001KT 18/18 A3008 RMK A01 T01840176  RH  095%=      5-min Rain = 0
KMD1 151210Z 28001KT 18/18 A3008 RMK A01 T01840175  RH  095%=      5-min Rain = 0
KMD1 151211Z 27001KT 18/18 A3009 RMK A01 T01840175  RH  095%=      5-min Rain = 0
KMD1 151212Z 26000KT 18/18 A3009 RMK A01 T01830175  RH  095%=      5-min Rain = 0
KMD1 151213Z 00000KT 18/18 A3009 RMK A01 T01830175  RH  095%=      5-min Rain = 0
KMD1 151214Z 00000KT 18/18 A3009 RMK A01 T01830175  RH  095%=      5-min Rain = 0
KMD1 151215Z 00000KT 18/18 A3009 RMK A01 T01830175  RH  095%=      5-min Rain = 0
KMD1 151216Z 00000KT 18/18 A3009 RMK A01 T01830176  RH  095%=      5-min Rain = 0
KMD1 151217Z 00000KT 18/18 A3009 RMK A01 T01840176  RH  095%=      5-min Rain = 0
KMD1 151218Z 00000KT 18/18 A3009 RMK A01 T01840176  RH  095%=      5-min Rain = 0
KMD1 151219Z 00000KT 18/18 A3009 RMK A01 T01840176  RH  095%=      5-min Rain = 0
KMD1 151220Z 00000KT 18/18 A3009 RMK A01 T01840176  RH  095%=      5-min Rain = 0
KMD1 151221Z 27001KT 19/18 A3009 RMK A01 T01850176  RH  095%=      5-min Rain = 0
KMD1 151222Z 25001KT 18/18 A3009 RMK A01 T01840176  RH  095%=      5-min Rain = 0
KMD1 151223Z 24001KT 19/18 A3009 RMK A01 T01850177  RH  095%=      5-min Rain = 0
KMD1 151224Z 23001KT 19/18 A3009 RMK A01 T01850177  RH  095%=      5-min Rain = 0
KMD1 151225Z 23001KT 19/18 A3009 RMK A01 T01860177  RH  095%=      5-min Rain = 0
KMD1 151226Z 23001KT 19/18 A3009 RMK A01 T01860177  RH  095%=      5-min Rain = 0
KMD1 151227Z 23000KT 19/18 A3009 RMK A01 T01860177  RH  095%=      5-min Rain = 0
KMD1 151228Z 00000KT 19/18 A3009 RMK A01 T01870178  RH  095%=      5-min Rain = 0
KMD1 151229Z 00000KT 19/18 A3009 RMK A01 T01870179  RH  095%=      5-min Rain = 0
KMD1 151230Z 00000KT 19/18 A3009 RMK A01 T01880179  RH  095%=      5-min Rain = 0
KMD1 151231Z 00000KT 19/18 A3009 RMK A01 T01890180  RH  095%=      5-min Rain = 0
KMD1 151232Z 00000KT 19/18 A3009 RMK A01 T01890180  RH  094%=      5-min Rain = 0
KMD1 151233Z 23000KT 19/18 A3009 RMK A01 T01890180  RH  094%=      5-min Rain = 0
KMD1 151234Z 23000KT 19/18 A3009 RMK A01 T01900180  RH  094%=      5-min Rain = 0
KMD1 151235Z 23000KT 19/18 A3009 RMK A01 T01900180  RH  094%=      5-min Rain = 0
KMD1 151236Z 00000KT 19/18 A3009 RMK A01 T01910181  RH  094%=      5-min Rain = 0
KMD1 151237Z 28000KT 19/18 A3009 RMK A01 T01910181  RH  094%=      5-min Rain = 0
KMD1 151238Z 28000KT 19/18 A3009 RMK A01 T01920181  RH  094%=      5-min Rain = 0
KMD1 151239Z 28000KT 19/18 A3009 RMK A01 T01920181  RH  093%=      5-min Rain = 0
KMD1 151240Z 28001KT 19/18 A3009 RMK A01 T01920181  RH  093%=      5-min Rain = 0
KMD1 151241Z 28001KT 19/18 A3009 RMK A01 T01920181  RH  093%=      5-min Rain = 0
KMD1 151242Z 28001KT 19/18 A3009 RMK A01 T01920180  RH  093%=      5-min Rain = 0
KMD1 151243Z 29001KT 19/18 A3009 RMK A01 T01920180  RH  093%=      5-min Rain = 0
KMD1 151244Z 28001KT 19/18 A3009 RMK A01 T01920180  RH  093%=      5-min Rain = 0
KMD1 151245Z 28001KT 19/18 A3009 RMK A01 T01920180  RH  093%=      5-min Rain = 0
KMD1 151246Z 28001KT 19/18 A3009 RMK A01 T01930180  RH  092%=      5-min Rain = 0
KMD1 151247Z 28001KT 19/18 A3009 RMK A01 T01930181  RH  093%=      5-min Rain = 0
KMD1 151248Z 27001KT 19/18 A3009 RMK A01 T01930181  RH  093%=      5-min Rain = 0
KMD1 151249Z 25000KT 19/18 A3009 RMK A01 T01940182  RH  093%=      5-min Rain = 0
KMD1 151250Z 22001KT 19/18 A3009 RMK A01 T01940182  RH  093%=      5-min Rain = 0
KMD1 151251Z 24001KT 20/18 A3009 RMK A01 T01950182  RH  092%=      5-min Rain = 0
KMD1 151252Z 24001KT 20/18 A3009 RMK A01 T01950181  RH  092%=      5-min Rain = 0
KMD1 151253Z 25000KT 20/18 A301 RMK A01 T01960182  RH  091%=      5-min Rain = 0
KMD1 151254Z 23000KT 20/18 A301 RMK A01 T01960182  RH  091%=      5-min Rain = 0
KMD1 151255Z 24001KT 20/18 A301 RMK A01 T01970182  RH  091%=      5-min Rain = 0
KMD1 151256Z 26000KT 20/18 A301 RMK A01 T01980183  RH  091%=      5-min Rain = 0
KMD1 151257Z 26001KT 20/18 A301 RMK A01 T01990183  RH  090%=      5-min Rain = 0
KMD1 151258Z 24001KT 20/18 A301 RMK A01 T01990182  RH  090%=      5-min Rain = 0
KMD1 151259Z 24000KT 20/18 A301 RMK A01 T01990183  RH  090%=      5-min Rain = 0
KMD1 151300Z 26000KT 20/18 A301 RMK A01 T02000184  RH  090%=      5-min Rain = 0
KMD1 151301Z 27001KT 20/18 A301 RMK A01 T02010183  RH  090%=      5-min Rain = 0
KMD1 151302Z 28002KT 20/18 A301 RMK A01 T02010183  RH  089%=      5-min Rain = 0
KMD1 151303Z 28002KT 20/18 A301 RMK A01 T02010183  RH  089%=      5-min Rain = 0
KMD1 151304Z 28002KT 20/18 A301 RMK A01 T02010182  RH  089%=      5-min Rain = 0
KMD1 151305Z 28001KT 20/18 A301 RMK A01 T02010183  RH  089%=      5-min Rain = 0
KMD1 151306Z 27001KT 20/18 A301 RMK A01 T02020183  RH  089%=      5-min Rain = 0
KMD1 151307Z 28000KT 20/18 A301 RMK A01 T02020183  RH  089%=      5-min Rain = 0
KMD1 151308Z 26001KT 20/18 A301 RMK A01 T02030184  RH  089%=      5-min Rain = 0
KMD1 151309Z 25000KT 20/19 A301 RMK A01 T02040185  RH  089%=      5-min Rain = 0
KMD1 151310Z 25000KT 21/19 A301 RMK A01 T02050185  RH  088%=      5-min Rain = 0
KMD1 151311Z 27001KT 21/18 A301 RMK A01 T02050184  RH  087%=      5-min Rain = 0
KMD1 151312Z 26001KT 21/18 A301 RMK A01 T02060184  RH  087%=      5-min Rain = 0
KMD1 151313Z 24001KT 21/19 A301 RMK A01 T02070185  RH  087%=      5-min Rain = 0
KMD1 151314Z 24001KT 21/19 A301 RMK A01 T02080185  RH  087%=      5-min Rain = 0
KMD1 151315Z 22002KT 21/19 A301 RMK A01 T02090186  RH  087%=      5-min Rain = 0
KMD1 151316Z 21002KT 21/19 A301 RMK A01 T02100186  RH  086%=      5-min Rain = 0
KMD1 151317Z 21002KT 21/19 A301 RMK A01 T02110186  RH  086%=      5-min Rain = 0
KMD1 151318Z 22002KT 21/19 A301 RMK A01 T02110185  RH  085%=      5-min Rain = 0
KMD1 151319Z 21002KT 21/19 A301 RMK A01 T02110186  RH  086%=      5-min Rain = 0
KMD1 151320Z 23002KT 21/19 A301 RMK A01 T02110187  RH  086%=      5-min Rain = 0
KMD1 151321Z 24001KT 21/19 A301 RMK A01 T02110187  RH  086%=      5-min Rain = 0
KMD1 151322Z 25001KT 21/19 A301 RMK A01 T02120186  RH  085%=      5-min Rain = 0
KMD1 151323Z 24001KT 21/19 A301 RMK A01 T02120186  RH  085%=      5-min Rain = 0
KMD1 151324Z 23001KT 21/19 A301 RMK A01 T02130186  RH  085%=      5-min Rain = 0
KMD1 151325Z 24001KT 21/19 A301 RMK A01 T02130186  RH  085%=      5-min Rain = 0
KMD1 151326Z 26002KT 21/19 A301 RMK A01 T02140188  RH  085%=      5-min Rain = 0
KMD1 151327Z 26002KT 22/19 A301 RMK A01 T02150188  RH  085%=      5-min Rain = 0
KMD1 151328Z 25002KT 22/19 A301 RMK A01 T02160188  RH  084%=      5-min Rain = 0
KMD1 151329Z 24003KT 22/19 A301 RMK A01 T02160188  RH  084%=      5-min Rain = 0
KMD1 151330Z 22001KT 22/19 A301 RMK A01 T02170188  RH  084%=      5-min Rain = 0
KMD1 151331Z 22001KT 22/19 A301 RMK A01 T02180189  RH  084%=      5-min Rain = 0
KMD1 151332Z 23003KT 22/19 A301 RMK A01 T02190190  RH  084%=      5-min Rain = 0
KMD1 151333Z 24004KT 22/19 A301 RMK A01 T02200189  RH  083%=      5-min Rain = 0
KMD1 151334Z 23003KT 22/19 A301 RMK A01 T02200189  RH  082%=      5-min Rain = 0
KMD1 151335Z 24004KT 22/19 A301 RMK A01 T02210189  RH  082%=      5-min Rain = 0
KMD1 151336Z 25003KT 22/19 A301 RMK A01 T02220190  RH  082%=      5-min Rain = 0
KMD1 151337Z 24003KT 22/19 A301 RMK A01 T02220190  RH  082%=      5-min Rain = 0
KMD1 151338Z 23003KT 22/19 A301 RMK A01 T02230189  RH  081%=      5-min Rain = 0
KMD1 151339Z 24003KT 22/19 A301 RMK A01 T02230190  RH  081%=      5-min Rain = 0
KMD1 151340Z 24004KT 22/19 A301 RMK A01 T02230190  RH  081%=      5-min Rain = 0
KMD1 151341Z 25004KT 22/19 A301 RMK A01 T02230190  RH  082%=      5-min Rain = 0
KMD1 151342Z 25003KT 22/19 A301 RMK A01 T02240190  RH  081%=      5-min Rain = 0
KMD1 151343Z 23003KT 23/19 A301 RMK A01 T02250191  RH  081%=      5-min Rain = 0
KMD1 151344Z 24003KT 23/19 A301 RMK A01 T02260191  RH  081%=      5-min Rain = 0
KMD1 151345Z 24004KT 23/19 A301 RMK A01 T02270192  RH  081%=      5-min Rain = 0
KMD1 151346Z 24004KT 23/19 A301 RMK A01 T02280192  RH  080%=      5-min Rain = 0
KMD1 151347Z 24003KT 23/19 A301 RMK A01 T02280192  RH  080%=      5-min Rain = 0
KMD1 151348Z 24002KT 23/19 A301 RMK A01 T02290192  RH  080%=      5-min Rain = 0
KMD1 151349Z 25003KT 23/19 A301 RMK A01 T02300193  RH  079%=      5-min Rain = 0
KMD1 151350Z 25003KT 23/19 A301 RMK A01 T02320193  RH  079%=      5-min Rain = 0
KMD1 151351Z 25003KT 23/19 A301 RMK A01 T02330193  RH  078%=      5-min Rain = 0
KMD1 151352Z 26003KT 23/19 A301 RMK A01 T02330193  RH  078%=      5-min Rain = 0
KMD1 151353Z 29002KT 23/19 A301 RMK A01 T02340193  RH  078%=      5-min Rain = 0
KMD1 151354Z 24001KT 23/20 A301 RMK A01 T02340195  RH  078%=      5-min Rain = 0
KMD1 151355Z 25002KT 24/20 A301 RMK A01 T02370196  RH  078%=      5-min Rain = 0
KMD1 151356Z 25003KT 24/19 A301 RMK A01 T02390194  RH  076%=      5-min Rain = 0
KMD1 151357Z 24003KT 24/19 A301 RMK A01 T02390194  RH  076%=      5-min Rain = 0
KMD1 151358Z 25002KT 24/19 A301 RMK A01 T02390194  RH  076%=      5-min Rain = 0
KMD1 151359Z 25003KT 24/19 A301 RMK A01 T02390194  RH  076%=      5-min Rain = 0
KMD1 151400Z 26002KT 24/19 A301 RMK A01 T02390194  RH  076%=      5-min Rain = 0
KMD1 151401Z 26002KT 24/19 A301 RMK A01 T02390194  RH  076%=      5-min Rain = 0
KMD1 151402Z 28003KT 24/20 A301 RMK A01 T02400195  RH  076%=      5-min Rain = 0
KMD1 151403Z 26002KT 24/20 A301 RMK A01 T02410195  RH  076%=      5-min Rain = 0
KMD1 151404Z 27001KT 24/20 A301 RMK A01 T02420195  RH  075%=      5-min Rain = 0
KMD1 151405Z 28003KT 24/20 A301 RMK A01 T02430195  RH  075%=      5-min Rain = 0
KMD1 151406Z 28002KT 24/20 A301 RMK A01 T02430196  RH  075%=      5-min Rain = 0
KMD1 151407Z 28003KT 24/20 A301 RMK A01 T02440196  RH  075%=      5-min Rain = 0
KMD1 151408Z 26003KT 25/20 A301 RMK A01 T02450196  RH  074%=      5-min Rain = 0
KMD1 151409Z 25002KT 25/20 A301 RMK A01 T02460197  RH  074%=      5-min Rain = 0
KMD1 151410Z 27002KT 25/20 A301 RMK A01 T02480197  RH  074%=      5-min Rain = 0
KMD1 151411Z 25002KT 25/20 A301 RMK A01 T02480196  RH  073%=      5-min Rain = 0
KMD1 151412Z 26001KT 25/20 A301 RMK A01 T02480197  RH  073%=      5-min Rain = 0
KMD1 151413Z 23003KT 25/20 A301 RMK A01 T02490198  RH  073%=      5-min Rain = 0
KMD1 151414Z 22002KT 25/20 A301 RMK A01 T02500198  RH  073%=      5-min Rain = 0
KMD1 151415Z 19001KT 25/20 A301 RMK A01 T02500198  RH  073%=      5-min Rain = 0
KMD1 151416Z 22001KT 25/20 A301 RMK A01 T02510199  RH  073%=      5-min Rain = 0
KMD1 151417Z 25002KT 25/20 A301 RMK A01 T02520198  RH  072%=      5-min Rain = 0
KMD1 151418Z 27000KT 25/20 A301 RMK A01 T02530198  RH  072%=      5-min Rain = 0
KMD1 151419Z 21001KT 25/20 A301 RMK A01 T02540199  RH  071%=      5-min Rain = 0
KMD1 151420Z 18001KT 26/20 A301 RMK A01 T02560199  RH  071%=      5-min Rain = 0
KMD1 151421Z 00000KT 26/20 A301 RMK A01 T02570200  RH  071%=      5-min Rain = 0
KMD1 151422Z 27001KT 26/20 A301 RMK A01 T02580200  RH  070%=      5-min Rain = 0
KMD1 151423Z 25002KT 26/20 A301 RMK A01 T02600201  RH  070%=      5-min Rain = 0
KMD1 151424Z 24002KT 26/20 A301 RMK A01 T02590201  RH  070%=      5-min Rain = 0
KMD1 151425Z 21001KT 26/20 A301 RMK A01 T02580201  RH  071%=      5-min Rain = 0
KMD1 151426Z 24001KT 26/20 A301 RMK A01 T02580202  RH  071%=      5-min Rain = 0
KMD1 151427Z 25002KT 26/20 A301 RMK A01 T02580202  RH  071%=      5-min Rain = 0
KMD1 151428Z 24001KT 26/20 A301 RMK A01 T02590204  RH  072%=      5-min Rain = 0
KMD1 151429Z 25001KT 26/20 A301 RMK A01 T02610204  RH  071%=      5-min Rain = 0
KMD1 151430Z 26001KT 26/21 A301 RMK A01 T02630205  RH  071%=      5-min Rain = 0
KMD1 151431Z 26001KT 26/21 A301 RMK A01 T02640205  RH  070%=      5-min Rain = 0
KMD1 151432Z 28000KT 26/21 A301 RMK A01 T02640205  RH  070%=      5-min Rain = 0
KMD1 151433Z 19001KT 27/21 A301 RMK A01 T02650206  RH  070%=      5-min Rain = 0
KMD1 151434Z 16000KT 27/21 A301 RMK A01 T02660206  RH  069%=      5-min Rain = 0
KMD1 151435Z 07000KT 27/21 A301 RMK A01 T02660206  RH  070%=      5-min Rain = 0
KMD1 151436Z 15000KT 27/21 A301 RMK A01 T02670207  RH  070%=      5-min Rain = 0
KMD1 151437Z 26000KT 27/21 A301 RMK A01 T02690207  RH  069%=      5-min Rain = 0
KMD1 151438Z 24000KT 27/21 A301 RMK A01 T02700208  RH  069%=      5-min Rain = 0
KMD1 151439Z 21001KT 27/21 A301 RMK A01 T02720209  RH  068%=      5-min Rain = 0
KMD1 151440Z 22002KT 27/21 A301 RMK A01 T02730209  RH  068%=      5-min Rain = 0
KMD1 151441Z 24002KT 27/21 A301 RMK A01 T02730208  RH  068%=      5-min Rain = 0
KMD1 151442Z 27001KT 27/21 A3011 RMK A01 T02730209  RH  068%=      5-min Rain = 0
KMD1 151443Z 27000KT 27/21 A3011 RMK A01 T02720209  RH  068%=      5-min Rain = 0
KMD1 151444Z 00000KT 27/21 A3011 RMK A01 T02720208  RH  068%=      5-min Rain = 0
KMD1 151445Z 28000KT 27/21 A3011 RMK A01 T02740209  RH  068%=      5-min Rain = 0
KMD1 151446Z 06000KT 28/21 A3011 RMK A01 T02760211  RH  068%=      5-min Rain = 0
KMD1 151447Z 25002KT 28/21 A3011 RMK A01 T02790211  RH  066%=      5-min Rain = 0
KMD1 151448Z 24003KT 28/21 A3011 RMK A01 T02800210  RH  066%=      5-min Rain = 0
KMD1 151449Z 24003KT 28/21 A3011 RMK A01 T02800210  RH  066%=      5-min Rain = 0
KMD1 151450Z 22003KT 28/21 A3011 RMK A01 T02790210  RH  066%=      5-min Rain = 0
KMD1 151451Z 23003KT 28/21 A3011 RMK A01 T02790210  RH  066%=      5-min Rain = 0
KMD1 151452Z 22004KT 28/21 A3011 RMK A01 T02780210  RH  066%=      5-min Rain = 0
KMD1 151453Z 17001KT 28/21 A3011 RMK A01 T02770209  RH  066%=      5-min Rain = 0
KMD1 151454Z 21002KT 28/21 A3011 RMK A01 T02770209  RH  066%=      5-min Rain = 0
KMD1 151455Z 16002KT 28/21 A3011 RMK A01 T02780208  RH  066%=      5-min Rain = 0
KMD1 151456Z 22002KT 28/21 A3011 RMK A01 T02780209  RH  066%=      5-min Rain = 0
KMD1 151457Z 25002KT 28/21 A3011 RMK A01 T02810208  RH  065%=      5-min Rain = 0
KMD1 151458Z 27002KT 28/21 A3011 RMK A01 T02810208  RH  064%=      5-min Rain = 0
KMD1 151459Z 28002KT 28/21 A3011 RMK A01 T02810207  RH  064%=      5-min Rain = 0
KMD1 151500Z 30001KT 28/21 A3011 RMK A01 T02820208  RH  064%=      5-min Rain = 0
KMD1 151501Z 27001KT 28/21 A3011 RMK A01 T02830208  RH  064%=      5-min Rain = 0
KMD1 151502Z 23001KT 28/21 A3011 RMK A01 T02840209  RH  064%=      5-min Rain = 0
KMD1 151503Z 17001KT 29/21 A3011 RMK A01 T02860209  RH  063%=      5-min Rain = 0
KMD1 151504Z 16002KT 29/21 A3011 RMK A01 T02880207  RH  062%=      5-min Rain = 0
KMD1 151505Z 19001KT 29/21 A3011 RMK A01 T02900207  RH  061%=      5-min Rain = 0
KMD1 151506Z 17001KT 29/21 A3011 RMK A01 T02910211  RH  062%=      5-min Rain = 0
KMD1 151507Z 17001KT 29/21 A3011 RMK A01 T02940209  RH  060%=      5-min Rain = 0
KMD1 151508Z 14000KT 30/21 A3011 RMK A01 T02960209  RH  060%=      5-min Rain = 0
KMD1 151509Z 14001KT 30/21 A3011 RMK A01 T02980208  RH  058%=      5-min Rain = 0
KMD1 151510Z 17000KT 30/21 A3011 RMK A01 T02980208  RH  058%=      5-min Rain = 0
KMD1 151511Z 19002KT 30/21 A3011 RMK A01 T03000209  RH  058%=      5-min Rain = 0
KMD1 151512Z 12002KT 30/21 A3011 RMK A01 T03010209  RH  058%=      5-min Rain = 0
KMD1 151513Z 14002KT 30/21 A3011 RMK A01 T03000209  RH  058%=      5-min Rain = 0
KMD1 151514Z 15001KT 30/21 A3011 RMK A01 T02990208  RH  058%=      5-min Rain = 0
KMD1 151515Z 20003KT 30/21 A3011 RMK A01 T02990209  RH  058%=      5-min Rain = 0
KMD1 151516Z 20003KT 30/21 A3011 RMK A01 T02970207  RH  058%=      5-min Rain = 0
KMD1 151517Z 20002KT 30/21 A3011 RMK A01 T02950207  RH  059%=      5-min Rain = 0
KMD1 151518Z 20000KT 29/21 A3011 RMK A01 T02940208  RH  060%=      5-min Rain = 0
KMD1 151519Z 06000KT 29/21 A3011 RMK A01 T02940209  RH  060%=      5-min Rain = 0
KMD1 151520Z 13001KT 30/21 A3011 RMK A01 T02970209  RH  059%=      5-min Rain = 0
KMD1 151521Z 12002KT 30/21 A3011 RMK A01 T02980208  RH  058%=      5-min Rain = 0
KMD1 151522Z 10001KT 30/21 A3011 RMK A01 T02980207  RH  058%=      5-min Rain = 0
KMD1 151523Z 13001KT 30/21 A3011 RMK A01 T02980208  RH  058%=      5-min Rain = 0
KMD1 151524Z 14002KT 30/21 A3011 RMK A01 T02980207  RH  058%=      5-min Rain = 0
KMD1 151525Z 11002KT 30/21 A3011 RMK A01 T03000208  RH  058%=      5-min Rain = 0
KMD1 151526Z 11001KT 30/21 A3011 RMK A01 T03010209  RH  058%=      5-min Rain = 0
KMD1 151527Z 13002KT 30/21 A3011 RMK A01 T03020208  RH  057%=      5-min Rain = 0
KMD1 151528Z 15002KT 30/21 A3011 RMK A01 T03020210  RH  058%=      5-min Rain = 0
KMD1 151529Z 12003KT 30/21 A3011 RMK A01 T03030210  RH  058%=      5-min Rain = 0
KMD1 151530Z 13004KT 30/21 A3011 RMK A01 T03040209  RH  057%=      5-min Rain = 0
KMD1 151531Z 13003KT 30/21 A3011 RMK A01 T03030209  RH  057%=      5-min Rain = 0
KMD1 151532Z 10003KT 30/21 A3011 RMK A01 T03010209  RH  058%=      5-min Rain = 0
KMD1 151533Z 12002KT 30/21 A3011 RMK A01 T03010209  RH  058%=      5-min Rain = 0
KMD1 151534Z 12002KT 30/21 A3011 RMK A01 T03010209  RH  058%=      5-min Rain = 0
KMD1 151535Z 12003KT 30/21 A3011 RMK A01 T03030209  RH  057%=      5-min Rain = 0
KMD1 151536Z 12003KT 30/21 A3011 RMK A01 T03030209  RH  057%=      5-min Rain = 0
KMD1 151537Z 08001KT 30/21 A3011 RMK A01 T03040208  RH  057%=      5-min Rain = 0
KMD1 151538Z 05001KT 30/21 A3011 RMK A01 T03030209  RH  057%=      5-min Rain = 0
KMD1 151539Z 06001KT 30/21 A3011 RMK A01 T03030208  RH  057%=      5-min Rain = 0
KMD1 151540Z 34001KT 30/21 A3011 RMK A01 T03030209  RH  057%=      5-min Rain = 0
KMD1 151541Z 29002KT 31/21 A3011 RMK A01 T03050208  RH  056%=      5-min Rain = 0
KMD1 151542Z 27001KT 31/21 A3011 RMK A01 T03050209  RH  057%=      5-min Rain = 0
KMD1 151543Z 27002KT 31/21 A3011 RMK A01 T03050210  RH  057%=      5-min Rain = 0
KMD1 151544Z 27002KT 31/21 A3011 RMK A01 T03050209  RH  056%=      5-min Rain = 0
KMD1 151545Z 29002KT 30/21 A3011 RMK A01 T03040209  RH  057%=      5-min Rain = 0
KMD1 151546Z 32003KT 30/21 A3011 RMK A01 T03040210  RH  057%=      5-min Rain = 0
KMD1 151547Z 32002KT 30/21 A3011 RMK A01 T03020209  RH  057%=      5-min Rain = 0
KMD1 151548Z 31002KT 30/21 A3011 RMK A01 T03030209  RH  057%=      5-min Rain = 0
KMD1 151549Z 26002KT 30/21 A3011 RMK A01 T03030210  RH  058%=      5-min Rain = 0
KMD1 151550Z 24003KT 31/21 A3011 RMK A01 T03050210  RH  057%=      5-min Rain = 0
KMD1 151551Z 13003KT 31/21 A3011 RMK A01 T03070211  RH  057%=      5-min Rain = 0
KMD1 151552Z 15002KT 31/21 A3011 RMK A01 T03120213  RH  056%=      5-min Rain = 0
KMD1 151553Z 17001KT 32/21 A3011 RMK A01 T03160211  RH  054%=      5-min Rain = 0
KMD1 151554Z 23001KT 32/21 A3011 RMK A01 T03170211  RH  053%=      5-min Rain = 0
KMD1 151555Z 29001KT 32/21 A3011 RMK A01 T03170211  RH  053%=      5-min Rain = 0
KMD1 151556Z 05001KT 32/21 A3011 RMK A01 T03180213  RH  054%=      5-min Rain = 0
KMD1 151557Z 07002KT 32/21 A3011 RMK A01 T03200212  RH  053%=      5-min Rain = 0
KMD1 151558Z 09002KT 32/21 A3011 RMK A01 T03210212  RH  053%=      5-min Rain = 0
KMD1 151559Z 16002KT 32/21 A3011 RMK A01 T03210212  RH  053%=      5-min Rain = 0
KMD1 151600Z 20002KT 32/21 A3011 RMK A01 T03200213  RH  053%=      5-min Rain = 0
KMD1 151601Z 15004KT 32/21 A3011 RMK A01 T03200212  RH  053%=      5-min Rain = 0
KMD1 151602Z 12004KT 32/21 A3011 RMK A01 T03200211  RH  053%=      5-min Rain = 0
KMD1 151603Z 12002KT 32/21 A3011 RMK A01 T03200213  RH  053%=      5-min Rain = 0
KMD1 151604Z 11005KT 32/21 A3011 RMK A01 T03210214  RH  053%=      5-min Rain = 0
KMD1 151605Z 09006KT 32/21 A3012 RMK A01 T03230212  RH  052%=      5-min Rain = 0
KMD1 151606Z 09005KT 32/21 A3012 RMK A01 T03200212  RH  053%=      5-min Rain = 0
KMD1 151607Z 11004KT 32/21 A3012 RMK A01 T03160210  RH  053%=      5-min Rain = 0
KMD1 151608Z 11005KT 31/21 A3012 RMK A01 T03130211  RH  055%=      5-min Rain = 0
KMD1 151609Z 12003KT 31/21 A3011 RMK A01 T03140211  RH  054%=      5-min Rain = 0
KMD1 151610Z 13000KT 32/21 A3011 RMK A01 T03160209  RH  053%=      5-min Rain = 0
KMD1 151611Z 32000KT 32/21 A3011 RMK A01 T03160210  RH  053%=      5-min Rain = 0
KMD1 151612Z 33001KT 32/21 A3011 RMK A01 T03170211  RH  054%=      5-min Rain = 0
KMD1 151613Z 32001KT 32/21 A3011 RMK A01 T03170211  RH  053%=      5-min Rain = 0
KMD1 151614Z 31002KT 32/21 A3011 RMK A01 T03170211  RH  054%=      5-min Rain = 0
KMD1 151615Z 33003KT 32/21 A3011 RMK A01 T03170212  RH  054%=      5-min Rain = 0
KMD1 151616Z 32002KT 32/21 A3011 RMK A01 T03170211  RH  053%=      5-min Rain = 0
KMD1 151617Z 34001KT 32/21 A3011 RMK A01 T03160213  RH  054%=      5-min Rain = 0
KMD1 151618Z 02000KT 32/21 A3011 RMK A01 T03180211  RH  053%=      5-min Rain = 0
KMD1 151619Z 09002KT 32/21 A3011 RMK A01 T03200213  RH  053%=      5-min Rain = 0
KMD1 151620Z 09003KT 32/21 A3011 RMK A01 T03230212  RH  052%=      5-min Rain = 0
KMD1 151621Z 13005KT 32/21 A3011 RMK A01 T03230209  RH  051%=      5-min Rain = 0
KMD1 151622Z 14004KT 32/21 A3011 RMK A01 T03220207  RH  051%=      5-min Rain = 0
KMD1 151623Z 14003KT 32/21 A3011 RMK A01 T03220206  RH  050%=      5-min Rain = 0
KMD1 151624Z 16001KT 32/21 A3011 RMK A01 T03210207  RH  051%=      5-min Rain = 0
KMD1 151625Z 11004KT 32/21 A3011 RMK A01 T03220209  RH  051%=      5-min Rain = 0
KMD1 151626Z 09005KT 32/21 A3011 RMK A01 T03240207  RH  050%=      5-min Rain = 0
KMD1 151627Z 08006KT 33/21 A3011 RMK A01 T03250206  RH  049%=      5-min Rain = 0
KMD1 151628Z 10006KT 33/21 A3011 RMK A01 T03260205  RH  049%=      5-min Rain = 0
KMD1 151629Z 07004KT 32/20 A3011 RMK A01 T03230204  RH  050%=      5-min Rain = 0
KMD1 151630Z 05002KT 32/20 A3011 RMK A01 T03190204  RH  051%=      5-min Rain = 0
KMD1 151631Z 07001KT 32/21 A3011 RMK A01 T03190205  RH  051%=      5-min Rain = 0
KMD1 151632Z 06002KT 32/21 A3011 RMK A01 T03220206  RH  050%=      5-min Rain = 0
KMD1 151633Z 07002KT 33/20 A3011 RMK A01 T03260204  RH  049%=      5-min Rain = 0
KMD1 151634Z 09006KT 33/21 A3011 RMK A01 T03270206  RH  049%=      5-min Rain = 0
KMD1 151635Z 09006KT 33/20 A3011 RMK A01 T03290204  RH  048%=      5-min Rain = 0
KMD1 151636Z 09007KT 33/20 A3011 RMK A01 T03300202  RH  047%=      5-min Rain = 0
KMD1 151637Z 07005KT 33/20 A3011 RMK A01 T03290202  RH  047%=      5-min Rain = 0
KMD1 151638Z 06004KT 33/20 A3011 RMK A01 T03260201  RH  048%=      5-min Rain = 0
KMD1 151639Z 06003KT 33/20 A3011 RMK A01 T03250200  RH  048%=      5-min Rain = 0
KMD1 151640Z 05004KT 33/20 A3011 RMK A01 T03250197  RH  047%=      5-min Rain = 0
KMD1 151641Z 05004KT 33/20 A301 RMK A01 T03260196  RH  046%=      5-min Rain = 0
KMD1 151642Z 09004KT 33/20 A301 RMK A01 T03270201  RH  048%=      5-min Rain = 0
KMD1 151643Z 10004KT 33/20 A301 RMK A01 T03290202  RH  047%=      5-min Rain = 0
KMD1 151644Z 10004KT 33/20 A301 RMK A01 T03290201  RH  047%=      5-min Rain = 0
KMD1 151645Z 11002KT 33/20 A301 RMK A01 T03280201  RH  047%=      5-min Rain = 0
KMD1 151646Z 13001KT 33/20 A301 RMK A01 T03260202  RH  048%=      5-min Rain = 0
KMD1 151647Z 14000KT 33/20 A301 RMK A01 T03250204  RH  049%=      5-min Rain = 0
KMD1 151648Z 12004KT 33/20 A301 RMK A01 T03270204  RH  049%=      5-min Rain = 0
KMD1 151649Z 12002KT 33/20 A301 RMK A01 T03270201  RH  047%=      5-min Rain = 0
KMD1 151650Z 12006KT 33/20 A301 RMK A01 T03270201  RH  048%=      5-min Rain = 0
KMD1 151651Z 14004KT 33/20 A301 RMK A01 T03270201  RH  048%=      5-min Rain = 0
KMD1 151652Z 11003KT 33/20 A301 RMK A01 T03280204  RH  048%=      5-min Rain = 0
KMD1 151653Z 08003KT 33/20 A301 RMK A01 T03310203  RH  047%=      5-min Rain = 0
KMD1 151654Z 08004KT 33/20 A301 RMK A01 T03320203  RH  047%=      5-min Rain = 0
KMD1 151655Z 11003KT 33/21 A301 RMK A01 T03330205  RH  047%=      5-min Rain = 0
KMD1 151656Z 16004KT 33/20 A301 RMK A01 T03320204  RH  047%=      5-min Rain = 0
KMD1 151657Z 13003KT 33/21 A301 RMK A01 T03330207  RH  048%=      5-min Rain = 0
KMD1 151658Z 13004KT 34/20 A301 RMK A01 T03350204  RH  046%=      5-min Rain = 0
KMD1 151659Z 14004KT 34/20 A301 RMK A01 T03370203  RH  046%=      5-min Rain = 0
KMD1 151700Z 14003KT 34/20 A301 RMK A01 T03360204  RH  046%=      5-min Rain = 0
KMD1 151701Z 16001KT 33/20 A301 RMK A01 T03340203  RH  046%=      5-min Rain = 0
KMD1 151702Z 22002KT 33/20 A301 RMK A01 T03340203  RH  046%=      5-min Rain = 0
KMD1 151703Z 23002KT 33/20 A301 RMK A01 T03320202  RH  047%=      5-min Rain = 0
KMD1 151704Z 20001KT 33/20 A301 RMK A01 T03310203  RH  047%=      5-min Rain = 0
KMD1 151705Z 17005KT 33/21 A301 RMK A01 T03320205  RH  047%=      5-min Rain = 0
KMD1 151706Z 14002KT 33/21 A301 RMK A01 T03340206  RH  047%=      5-min Rain = 0
KMD1 151707Z 06003KT 34/21 A301 RMK A01 T03370207  RH  047%=      5-min Rain = 0
KMD1 151708Z 07005KT 34/21 A301 RMK A01 T03400206  RH  045%=      5-min Rain = 0
KMD1 151709Z 09005KT 34/21 A301 RMK A01 T03380205  RH  046%=      5-min Rain = 0
KMD1 151710Z 12003KT 33/20 A301 RMK A01 T03340203  RH  046%=      5-min Rain = 0
KMD1 151711Z 15004KT 33/20 A301 RMK A01 T03310204  RH  047%=      5-min Rain = 0
KMD1 151712Z 12002KT 33/20 A301 RMK A01 T03310204  RH  047%=      5-min Rain = 0
KMD1 151713Z 05002KT 33/20 A301 RMK A01 T03320203  RH  047%=      5-min Rain = 0
KMD1 151714Z 05001KT 33/20 A301 RMK A01 T03320203  RH  047%=      5-min Rain = 0
KMD1 151715Z 00000KT 33/20 A301 RMK A01 T03320203  RH  047%=      5-min Rain = 0
KMD1 151716Z 10001KT 33/21 A301 RMK A01 T03340205  RH  047%=      5-min Rain = 0
KMD1 151717Z 09004KT 34/20 A301 RMK A01 T03380204  RH  046%=      5-min Rain = 0
KMD1 151718Z 11007KT 34/21 A301 RMK A01 T03370205  RH  046%=      5-min Rain = 0
KMD1 151719Z 11007KT 34/21 A301 RMK A01 T03370205  RH  046%=      5-min Rain = 0
KMD1 151720Z 10006KT 34/20 A301 RMK A01 T03360203  RH  046%=      5-min Rain = 0
KMD1 151721Z 09006KT 33/21 A301 RMK A01 T03340205  RH  047%=      5-min Rain = 0
KMD1 151722Z 09004KT 33/20 A301 RMK A01 T03340204  RH  046%=      5-min Rain = 0
KMD1 151723Z 16003KT 33/20 A301 RMK A01 T03340204  RH  046%=      5-min Rain = 0
KMD1 151724Z 18003KT 33/20 A301 RMK A01 T03340204  RH  047%=      5-min Rain = 0
KMD1 151725Z 16003KT 33/21 A3009 RMK A01 T03340205  RH  047%=      5-min Rain = 0
KMD1 151726Z 16002KT 34/20 A301 RMK A01 T03350203  RH  046%=      5-min Rain = 0
KMD1 151727Z 14004KT 34/20 A3009 RMK A01 T03350204  RH  046%=      5-min Rain = 0
KMD1 151728Z 11003KT 34/20 A301 RMK A01 T03350203  RH  046%=      5-min Rain = 0
KMD1 151729Z 16001KT 34/20 A3009 RMK A01 T03350198  RH  045%=      5-min Rain = 0
KMD1 151730Z 32001KT 34/20 A3009 RMK A01 T03350197  RH  044%=      5-min Rain = 0
KMD1 151731Z 25001KT 34/20 A3009 RMK A01 T03360200  RH  045%=      5-min Rain = 0
KMD1 151732Z 18001KT 34/20 A3009 RMK A01 T03370202  RH  045%=      5-min Rain = 0
KMD1 151733Z 18000KT 34/21 A3009 RMK A01 T03370205  RH  046%=      5-min Rain = 0
KMD1 151734Z 09003KT 34/21 A3009 RMK A01 T03370205  RH  046%=      5-min Rain = 0
KMD1 151735Z 09005KT 34/21 A3009 RMK A01 T03380205  RH  046%=      5-min Rain = 0
KMD1 151736Z 13004KT 34/21 A3009 RMK A01 T03400206  RH  045%=      5-min Rain = 0
KMD1 151737Z 12004G9KT 34/21 A3009 RMK A01 T03410205  RH  045%=      5-min Rain = 0
KMD1 151738Z 12006KT 34/20 A3009 RMK A01 T03380204  RH  046%=      5-min Rain = 0
KMD1 151739Z 12006KT 34/21 A3009 RMK A01 T03380205  RH  046%=      5-min Rain = 0
KMD1 151740Z 11007KT 34/21 A3009 RMK A01 T03390206  RH  046%=      5-min Rain = 0
KMD1 151741Z 11007KT 34/21 A3009 RMK A01 T03440206  RH  045%=      5-min Rain = 0
KMD1 151742Z 12005KT 34/21 A3009 RMK A01 T03440205  RH  044%=      5-min Rain = 0
KMD1 151743Z 08006KT 34/20 A3009 RMK A01 T03390204  RH  045%=      5-min Rain = 0
KMD1 151744Z 07006KT 34/20 A3009 RMK A01 T03360203  RH  046%=      5-min Rain = 0
KMD1 151745Z 05003KT 33/20 A3009 RMK A01 T03340201  RH  046%=      5-min Rain = 0
KMD1 151746Z 03004KT 33/20 A3009 RMK A01 T03340203  RH  046%=      5-min Rain = 0
KMD1 151747Z 02003KT 34/20 A3009 RMK A01 T03360202  RH  045%=      5-min Rain = 0
KMD1 151748Z 35002KT 34/20 A3009 RMK A01 T03360202  RH  045%=      5-min Rain = 0
KMD1 151749Z 06002KT 34/20 A3009 RMK A01 T03350201  RH  045%=      5-min Rain = 0
KMD1 151750Z 12002KT 33/20 A3008 RMK A01 T03340202  RH  046%=      5-min Rain = 0
KMD1 151751Z 17002KT 33/20 A3008 RMK A01 T03320201  RH  046%=      5-min Rain = 0
KMD1 151752Z 17002KT 33/20 A3008 RMK A01 T03320200  RH  046%=      5-min Rain = 0
KMD1 151753Z 18002KT 33/20 A3008 RMK A01 T03310201  RH  046%=      5-min Rain = 0
KMD1 151754Z 20003KT 33/20 A3008 RMK A01 T03330202  RH  046%=      5-min Rain = 0
KMD1 151755Z 22003KT 34/20 A3008 RMK A01 T03360201  RH  045%=      5-min Rain = 0
KMD1 151756Z 25002KT 34/20 A3008 RMK A01 T03370202  RH  045%=      5-min Rain = 0
KMD1 151757Z 22002KT 34/20 A3008 RMK A01 T03380201  RH  045%=      5-min Rain = 0
KMD1 151758Z 22001KT 34/20 A3008 RMK A01 T03380202  RH  045%=      5-min Rain = 0
KMD1 151759Z 27002KT 34/20 A3008 RMK A01 T03380202  RH  045%=      5-min Rain = 0
KMD1 151800Z 27004KT 34/20 A3008 RMK A01 T03400204  RH  045%=      5-min Rain = 0
KMD1 151801Z 27002KT 34/20 A3008 RMK A01 T03400203  RH  045%=      5-min Rain = 0
KMD1 151802Z 27005KT 34/21 A3007 RMK A01 T03410207  RH  045%=      5-min Rain = 0
KMD1 151803Z 28008KT 34/21 A3007 RMK A01 T03440206  RH  045%=      5-min Rain = 0
KMD1 151804Z 28007KT 35/21 A3007 RMK A01 T03450205  RH  044%=      5-min Rain = 0
KMD1 151805Z 28004KT 34/20 A3007 RMK A01 T03440203  RH  044%=      5-min Rain = 0
KMD1 151806Z 25004KT 34/20 A3007 RMK A01 T03410203  RH  044%=      5-min Rain = 0
KMD1 151807Z 22004KT 34/20 A3007 RMK A01 T03380203  RH  045%=      5-min Rain = 0
KMD1 151808Z 22003KT 34/20 A3007 RMK A01 T03360203  RH  046%=      5-min Rain = 0
KMD1 151809Z 19003KT 34/20 A3007 RMK A01 T03360203  RH  046%=      5-min Rain = 0
KMD1 151810Z 18004KT 34/20 A3007 RMK A01 T03370202  RH  045%=      5-min Rain = 0
KMD1 151811Z 22003KT 34/20 A3007 RMK A01 T03370203  RH  045%=      5-min Rain = 0
KMD1 151812Z 23003KT 34/20 A3007 RMK A01 T03360201  RH  045%=      5-min Rain = 0
KMD1 151813Z 22003KT 33/20 A3007 RMK A01 T03340201  RH  046%=      5-min Rain = 0
KMD1 151814Z 18003KT 33/20 A3007 RMK A01 T03340203  RH  046%=      5-min Rain = 0
KMD1 151815Z 18004KT 33/20 A3007 RMK A01 T03340203  RH  046%=      5-min Rain = 0
KMD1 151816Z 18005KT 34/21 A3007 RMK A01 T03370205  RH  046%=      5-min Rain = 0
KMD1 151817Z 16005KT 34/20 A3007 RMK A01 T03400204  RH  045%=      5-min Rain = 0
KMD1 151818Z 15004KT 34/20 A3007 RMK A01 T03410204  RH  045%=      5-min Rain = 0
KMD1 151819Z 10003KT 34/20 A3007 RMK A01 T03440204  RH  044%=      5-min Rain = 0
KMD1 151820Z 14005KT 35/20 A3007 RMK A01 T03470204  RH  043%=      5-min Rain = 0
KMD1 151821Z 12007KT 35/20 A3007 RMK A01 T03490203  RH  043%=      5-min Rain = 0
KMD1 151822Z 11007KT 35/20 A3006 RMK A01 T03470201  RH  042%=      5-min Rain = 0
KMD1 151823Z 14006KT 34/20 A3006 RMK A01 T03440201  RH  043%=      5-min Rain = 0
KMD1 151824Z 16006KT 34/20 A3006 RMK A01 T03410200  RH  044%=      5-min Rain = 0
KMD1 151825Z 17005KT 34/20 A3006 RMK A01 T03370200  RH  045%=      5-min Rain = 0
KMD1 151826Z 16004KT 33/20 A3006 RMK A01 T03340201  RH  046%=      5-min Rain = 0
KMD1 151827Z 15003KT 33/20 A3006 RMK A01 T03320200  RH  046%=      5-min Rain = 0
KMD1 151828Z 16005KT 33/20 A3006 RMK A01 T03320200  RH  046%=      5-min Rain = 0
KMD1 151829Z 16004KT 33/20 A3006 RMK A01 T03320199  RH  046%=      5-min Rain = 0
KMD1 151830Z 17005KT 33/20 A3006 RMK A01 T03320200  RH  046%=      5-min Rain = 0
KMD1 151831Z 17006KT 33/20 A3006 RMK A01 T03330199  RH  045%=      5-min Rain = 0
KMD1 151832Z 19004KT 33/20 A3006 RMK A01 T03340200  RH  046%=      5-min Rain = 0
KMD1 151833Z 19004KT 34/20 A3006 RMK A01 T03360199  RH  045%=      5-min Rain = 0
KMD1 151834Z 19002KT 34/20 A3006 RMK A01 T03380199  RH  044%=      5-min Rain = 0
KMD1 151835Z 19001KT 34/20 A3005 RMK A01 T03400200  RH  044%=      5-min Rain = 0
KMD1 151836Z 19002KT 34/20 A3005 RMK A01 T03420200  RH  043%=      5-min Rain = 0
KMD1 151837Z 19003KT 34/20 A3005 RMK A01 T03440201  RH  043%=      5-min Rain = 0
KMD1 151838Z 16006G12KT 35/20 A3005 RMK A01 T03480203  RH  043%=      5-min Rain = 0
KMD1 151839Z 16005KT 35/20 A3005 RMK A01 T03500202  RH  042%=      5-min Rain = 0
KMD1 151840Z 18006KT 35/20 A3005 RMK A01 T03510203  RH  042%=      5-min Rain = 0
KMD1 151841Z 17007KT 35/20 A3005 RMK A01 T03490201  RH  042%=      5-min Rain = 0
KMD1 151842Z 18005KT 35/20 A3005 RMK A01 T03460200  RH  043%=      5-min Rain = 0
KMD1 151843Z 19004KT 35/20 A3005 RMK A01 T03450202  RH  043%=      5-min Rain = 0
KMD1 151844Z 17005KT 35/20 A3005 RMK A01 T03470202  RH  043%=      5-min Rain = 0
KMD1 151845Z 16003KT 35/20 A3005 RMK A01 T03500201  RH  042%=      5-min Rain = 0
KMD1 151846Z 14004KT 35/20 A3005 RMK A01 T03500201  RH  042%=      5-min Rain = 0
KMD1 151847Z 15003KT 35/20 A3005 RMK A01 T03510200  RH  041%=      5-min Rain = 0
KMD1 151848Z 09003KT 35/20 A3005 RMK A01 T03510201  RH  042%=      5-min Rain = 0
KMD1 151849Z 18003KT 35/20 A3005 RMK A01 T03510200  RH  041%=      5-min Rain = 0
KMD1 151850Z 24002KT 35/20 A3005 RMK A01 T03480201  RH  042%=      5-min Rain = 0
KMD1 151851Z 21002KT 35/20 A3005 RMK A01 T03470202  RH  043%=      5-min Rain = 0
KMD1 151852Z 20002KT 35/20 A3005 RMK A01 T03480200  RH  042%=      5-min Rain = 0
KMD1 151853Z 20004KT 35/20 A3005 RMK A01 T03480200  RH  042%=      5-min Rain = 0
KMD1 151854Z 19004KT 35/20 A3005 RMK A01 T03470199  RH  042%=      5-min Rain = 0
KMD1 151855Z 20007KT 35/20 A3004 RMK A01 T03450200  RH  043%=      5-min Rain = 0
KMD1 151856Z 20006KT 34/20 A3004 RMK A01 T03410196  RH  043%=      5-min Rain = 0
KMD1 151857Z 22004KT 34/20 A3004 RMK A01 T03380196  RH  043%=      5-min Rain = 0
KMD1 151858Z 22002KT 34/20 A3004 RMK A01 T03370195  RH  043%=      5-min Rain = 0
KMD1 151859Z 22004KT 34/20 A3004 RMK A01 T03360195  RH  044%=      5-min Rain = 0
KMD1 151900Z 24002KT 34/20 A3004 RMK A01 T03360196  RH  044%=      5-min Rain = 0
KMD1 151901Z 25000KT 34/20 A3004 RMK A01 T03360196  RH  044%=      5-min Rain = 0
KMD1 151902Z 25002KT 34/20 A3004 RMK A01 T03370197  RH  044%=      5-min Rain = 0
KMD1 151903Z 26003KT 34/20 A3004 RMK A01 T03380197  RH  044%=      5-min Rain = 0
KMD1 151904Z 27002KT 34/20 A3004 RMK A01 T03380196  RH  043%=      5-min Rain = 0
KMD1 151905Z 24003KT 34/20 A3004 RMK A01 T03380196  RH  043%=      5-min Rain = 0
KMD1 151906Z 21003KT 34/20 A3004 RMK A01 T03380196  RH  043%=      5-min Rain = 0
KMD1 151907Z 21003KT 34/20 A3004 RMK A01 T03390196  RH  043%=      5-min Rain = 0
KMD1 151908Z 23001KT 34/20 A3004 RMK A01 T03400195  RH  043%=      5-min Rain = 0
KMD1 151909Z 36001KT 34/20 A3004 RMK A01 T03410196  RH  042%=      5-min Rain = 0
KMD1 151910Z 01000KT 35/20 A3004 RMK A01 T03450196  RH  042%=      5-min Rain = 0
KMD1 151911Z 30001KT 35/20 A3004 RMK A01 T03470196  RH  041%=      5-min Rain = 0
KMD1 151912Z 25002KT 35/20 A3004 RMK A01 T03500199  RH  041%=      5-min Rain = 0
KMD1 151913Z 24002KT 35/20 A3004 RMK A01 T03510198  RH  041%=      5-min Rain = 0
KMD1 151914Z 34000KT 35/20 A3004 RMK A01 T03520199  RH  041%=      5-min Rain = 0
KMD1 151915Z 34002KT 35/20 A3003 RMK A01 T03540197  RH  040%=      5-min Rain = 0
KMD1 151916Z 02003KT 36/20 A3003 RMK A01 T03550198  RH  040%=      5-min Rain = 0
KMD1 151917Z 02007KT 35/20 A3003 RMK A01 T03540195  RH  039%=      5-min Rain = 0
KMD1 151918Z 03004KT 35/19 A3003 RMK A01 T03490192  RH  040%=      5-min Rain = 0
KMD1 151919Z 05002KT 35/19 A3003 RMK A01 T03470192  RH  040%=      5-min Rain = 0
KMD1 151920Z 04002KT 35/19 A3003 RMK A01 T03480194  RH  040%=      5-min Rain = 0
KMD1 151921Z 22001KT 35/19 A3003 RMK A01 T03510194  RH  040%=      5-min Rain = 0
KMD1 151922Z 18002KT 35/20 A3003 RMK A01 T03530196  RH  040%=      5-min Rain = 0
KMD1 151923Z 22003KT 36/20 A3003 RMK A01 T03570197  RH  039%=      5-min Rain = 0
KMD1 151924Z 21006KT 36/20 A3003 RMK A01 T03600197  RH  039%=      5-min Rain = 0
KMD1 151925Z 21006KT 36/20 A3003 RMK A01 T03600199  RH  039%=      5-min Rain = 0
KMD1 151926Z 20003KT 36/20 A3003 RMK A01 T03570199  RH  040%=      5-min Rain = 0
KMD1 151927Z 20005KT 36/20 A3003 RMK A01 T03560201  RH  040%=      5-min Rain = 0
KMD1 151928Z 20005KT 36/20 A3003 RMK A01 T03560199  RH  040%=      5-min Rain = 0
KMD1 151929Z 20005KT 36/20 A3003 RMK A01 T03550200  RH  040%=      5-min Rain = 0
KMD1 151930Z 20004KT 35/20 A3002 RMK A01 T03540198  RH  040%=      5-min Rain = 0
KMD1 151931Z 22002KT 36/20 A3002 RMK A01 T03550197  RH  040%=      5-min Rain = 0
KMD1 151932Z 23004KT 36/20 A3002 RMK A01 T03580197  RH  039%=      5-min Rain = 0
KMD1 151933Z 23004KT 36/19 A3002 RMK A01 T03590193  RH  038%=      5-min Rain = 0
KMD1 151934Z 22002KT 36/19 A3002 RMK A01 T03570194  RH  039%=      5-min Rain = 0
KMD1 151935Z 22002KT 36/19 A3002 RMK A01 T03550194  RH  039%=      5-min Rain = 0
KMD1 151936Z 20002KT 36/19 A3002 RMK A01 T03550193  RH  039%=      5-min Rain = 0
KMD1 151937Z 17001KT 35/19 A3002 RMK A01 T03520192  RH  039%=      5-min Rain = 0
KMD1 151938Z 07002KT 35/19 A3002 RMK A01 T03500193  RH  040%=      5-min Rain = 0
KMD1 151939Z 06004KT 35/20 A3002 RMK A01 T03500196  RH  040%=      5-min Rain = 0
KMD1 151940Z 08004KT 35/20 A3002 RMK A01 T03510197  RH  041%=      5-min Rain = 0
KMD1 151941Z 08005KT 35/20 A3002 RMK A01 T03510196  RH  040%=      5-min Rain = 0
KMD1 151942Z 09006KT 35/20 A3002 RMK A01 T03520196  RH  040%=      5-min Rain = 0
KMD1 151943Z 08008KT 36/20 A3002 RMK A01 T03550196  RH  039%=      5-min Rain = 0
KMD1 151944Z 11004KT 35/19 A3002 RMK A01 T03540194  RH  039%=      5-min Rain = 0
KMD1 151945Z 09004KT 35/20 A3002 RMK A01 T03530196  RH  040%=      5-min Rain = 0
KMD1 151946Z 08004KT 35/20 A3002 RMK A01 T03540196  RH  040%=      5-min Rain = 0
KMD1 151947Z 10006KT 35/20 A3002 RMK A01 T03530198  RH  040%=      5-min Rain = 0
KMD1 151948Z 11004KT 36/20 A3002 RMK A01 T03550196  RH  039%=      5-min Rain = 0
KMD1 151949Z 08003KT 36/20 A3002 RMK A01 T03550195  RH  039%=      5-min Rain = 0
KMD1 151950Z 13004KT 36/20 A3002 RMK A01 T03560197  RH  039%=      5-min Rain = 0
KMD1 151951Z 13003KT 36/20 A3002 RMK A01 T03570195  RH  039%=      5-min Rain = 0
KMD1 151952Z 15000KT 36/20 A3002 RMK A01 T03570195  RH  039%=      5-min Rain = 0
KMD1 151953Z 24000KT 36/19 A3002 RMK A01 T03580194  RH  038%=      5-min Rain = 0
KMD1 151954Z 27001KT 36/19 A3001 RMK A01 T03590193  RH  038%=      5-min Rain = 0
KMD1 151955Z 25001KT 36/20 A3001 RMK A01 T03590195  RH  038%=      5-min Rain = 0
KMD1 151956Z 22002KT 36/20 A3001 RMK A01 T03610195  RH  038%=      5-min Rain = 0
KMD1 151957Z 17003KT 36/20 A3001 RMK A01 T03620195  RH  038%=      5-min Rain = 0
KMD1 151958Z 18003KT 36/20 A3001 RMK A01 T03610196  RH  038%=      5-min Rain = 0
KMD1 151959Z 14005KT 36/20 A3001 RMK A01 T03620196  RH  038%=      5-min Rain = 0
KMD1 152000Z 17004KT 37/20 A3001 RMK A01 T03660195  RH  037%=      5-min Rain = 0
KMD1 152001Z 17005KT 37/20 A3001 RMK A01 T03660197  RH  037%=      5-min Rain = 0
KMD1 152002Z 19004KT 37/19 A3001 RMK A01 T03660192  RH  036%=      5-min Rain = 0
KMD1 152003Z 18003KT 36/19 A3001 RMK A01 T03640194  RH  037%=      5-min Rain = 0
KMD1 152004Z 20002KT 36/19 A3001 RMK A01 T03640192  RH  037%=      5-min Rain = 0
KMD1 152005Z 20000KT 36/19 A3001 RMK A01 T03630189  RH  036%=      5-min Rain = 0
KMD1 152006Z 10001KT 36/19 A3001 RMK A01 T03620190  RH  036%=      5-min Rain = 0
KMD1 152007Z 15002KT 36/19 A3001 RMK A01 T03630192  RH  037%=      5-min Rain = 0
KMD1 152008Z 13001KT 37/19 A3001 RMK A01 T03660190  RH  036%=      5-min Rain = 0
KMD1 152009Z 04001KT 37/19 A3001 RMK A01 T03660187  RH  035%=      5-min Rain = 0
KMD1 152010Z 00003KT 37/19 A3001 RMK A01 T03680186  RH  035%=      5-min Rain = 0
KMD1 152011Z 34002KT 37/19 A3001 RMK A01 T03680185  RH  034%=      5-min Rain = 0
KMD1 152012Z 03004KT 37/19 A3001 RMK A01 T03670186  RH  035%=      5-min Rain = 0
KMD1 152013Z 02004KT 37/18 A3001 RMK A01 T03660184  RH  034%=      5-min Rain = 0
KMD1 152014Z 35002KT 36/19 A30 RMK A01 T03630185  RH  035%=      5-min Rain = 0
KMD1 152015Z 30003KT 36/19 A30 RMK A01 T03630186  RH  035%=      5-min Rain = 0
KMD1 152016Z 32004KT 36/19 A30 RMK A01 T03640193  RH  037%=      5-min Rain = 0
KMD1 152017Z 02011KT 37/20 A30 RMK A01 T03660197  RH  037%=      5-min Rain = 0
KMD1 152018Z 05008KT 37/20 A30 RMK A01 T03710196  RH  036%=      5-min Rain = 0
KMD1 152019Z 06008KT 37/20 A30 RMK A01 T03720195  RH  036%=      5-min Rain = 0
KMD1 152020Z 06006KT 37/19 A30 RMK A01 T03700193  RH  036%=      5-min Rain = 0
KMD1 152021Z 07008KT 37/19 A30 RMK A01 T03660193  RH  036%=      5-min Rain = 0
KMD1 152022Z 06005KT 36/19 A30 RMK A01 T03640193  RH  037%=      5-min Rain = 0
KMD1 152023Z 03008KT 36/19 A30 RMK A01 T03640193  RH  037%=      5-min Rain = 0
KMD1 152024Z 02006KT 37/19 A30 RMK A01 T03650191  RH  036%=      5-min Rain = 0
KMD1 152025Z 04006KT 37/19 A30 RMK A01 T03650193  RH  037%=      5-min Rain = 0
KMD1 152026Z 05005KT 37/19 A30 RMK A01 T03660191  RH  036%=      5-min Rain = 0
KMD1 152027Z 06007KT 37/19 A30 RMK A01 T03650192  RH  036%=      5-min Rain = 0
KMD1 152028Z 07006KT 37/19 A30 RMK A01 T03660192  RH  036%=      5-min Rain = 0
KMD1 152029Z 09007KT 37/19 A30 RMK A01 T03670190  RH  036%=      5-min Rain = 0
KMD1 152030Z 09008KT 37/19 A30 RMK A01 T03690193  RH  036%=      5-min Rain = 0
KMD1 152031Z 10006KT 37/19 A30 RMK A01 T03670189  RH  035%=      5-min Rain = 0
KMD1 152032Z 09005KT 36/19 A30 RMK A01 T03620189  RH  036%=      5-min Rain = 0
KMD1 152033Z 08006G11KT 36/19 A30 RMK A01 T03610190  RH  037%=      5-min Rain = 0
KMD1 152034Z 09008KT 36/19 A30 RMK A01 T03630191  RH  037%=      5-min Rain = 0
KMD1 152035Z 11007KT 36/19 A30 RMK A01 T03630190  RH  036%=      5-min Rain = 0
KMD1 152036Z 10007KT 36/19 A30 RMK A01 T03620190  RH  036%=      5-min Rain = 0
KMD1 152037Z 10005KT 36/19 A30 RMK A01 T03610190  RH  037%=      5-min Rain = 0
KMD1 152038Z 10003KT 36/19 A30 RMK A01 T03600191  RH  037%=      5-min Rain = 0
KMD1 152039Z 11006KT 36/19 A30 RMK A01 T03630191  RH  037%=      5-min Rain = 0
KMD1 152040Z 01002KT 37/19 A30 RMK A01 T03650189  RH  036%=      5-min Rain = 0
KMD1 152041Z 11009KT 37/19 A30 RMK A01 T03650191  RH  036%=      5-min Rain = 0
KMD1 152042Z 09007KT 37/19 A30 RMK A01 T03650188  RH  035%=      5-min Rain = 0
KMD1 152043Z 12006KT 36/19 A30 RMK A01 T03620189  RH  036%=      5-min Rain = 0
KMD1 152044Z 12005KT 36/19 A30 RMK A01 T03620186  RH  036%=      5-min Rain = 0
KMD1 152045Z 10005KT 36/19 A30 RMK A01 T03620187  RH  036%=      5-min Rain = 0
KMD1 152046Z 10004KT 36/19 A30 RMK A01 T03620187  RH  036%=      5-min Rain = 0
KMD1 152047Z 11005KT 36/19 A30 RMK A01 T03610185  RH  036%=      5-min Rain = 0
KMD1 152048Z 10002KT 36/18 A30 RMK A01 T03580184  RH  036%=      5-min Rain = 0
KMD1 152049Z 13004KT 36/19 A30 RMK A01 T03560186  RH  037%=      5-min Rain = 0
KMD1 152050Z 12007KT 36/19 A30 RMK A01 T03570187  RH  037%=      5-min Rain = 0
KMD1 152051Z 10008KT 36/19 A30 RMK A01 T03580189  RH  037%=      5-min Rain = 0
KMD1 152052Z 10006KT 36/19 A30 RMK A01 T03590188  RH  037%=      5-min Rain = 0
KMD1 152053Z 10005KT 36/19 A30 RMK A01 T03570188  RH  037%=      5-min Rain = 0
KMD1 152054Z 10005KT 35/19 A30 RMK A01 T03540186  RH  037%=      5-min Rain = 0
KMD1 152055Z 11004KT 35/19 A2999 RMK A01 T03520185  RH  037%=      5-min Rain = 0
KMD1 152056Z 09005KT 35/18 A2999 RMK A01 T03520184  RH  037%=      5-min Rain = 0
KMD1 152057Z 06004KT 35/19 A2999 RMK A01 T03520187  RH  038%=      5-min Rain = 0
KMD1 152058Z 05006KT 36/19 A2999 RMK A01 T03550188  RH  037%=      5-min Rain = 0
KMD1 152059Z 05007KT 36/19 A2999 RMK A01 T03550187  RH  037%=      5-min Rain = 0
KMD1 152100Z 05005KT 35/19 A2999 RMK A01 T03540186  RH  037%=      5-min Rain = 0
KMD1 152101Z 07006KT 35/19 A2999 RMK A01 T03530186  RH  037%=      5-min Rain = 0
KMD1 152102Z 06008KT 35/19 A2999 RMK A01 T03530187  RH  038%=      5-min Rain = 0
KMD1 152103Z 05006KT 35/19 A2999 RMK A01 T03530186  RH  038%=      5-min Rain = 0
KMD1 152104Z 04006KT 35/18 A2999 RMK A01 T03520184  RH  037%=      5-min Rain = 0
KMD1 152105Z 04007KT 35/19 A2999 RMK A01 T03510186  RH  038%=      5-min Rain = 0
KMD1 152106Z 06005KT 35/19 A2999 RMK A01 T03520185  RH  038%=      5-min Rain = 0
KMD1 152107Z 06004KT 35/19 A2999 RMK A01 T03510187  RH  038%=      5-min Rain = 0
KMD1 152108Z 07006KT 35/19 A2999 RMK A01 T03530187  RH  038%=      5-min Rain = 0
KMD1 152109Z 07008KT 35/19 A2999 RMK A01 T03540188  RH  038%=      5-min Rain = 0
KMD1 152110Z 05011KT 35/19 A2999 RMK A01 T03540192  RH  039%=      5-min Rain = 0
KMD1 152111Z 05011KT 35/19 A2999 RMK A01 T03530191  RH  039%=      5-min Rain = 0
KMD1 152112Z 06009KT 35/19 A2999 RMK A01 T03510190  RH  039%=      5-min Rain = 0
KMD1 152113Z 05007KT 35/19 A2999 RMK A01 T03510192  RH  039%=      5-min Rain = 0
KMD1 152114Z 05007KT 35/20 A2999 RMK A01 T03530195  RH  040%=      5-min Rain = 0
KMD1 152115Z 06008KT 36/20 A2999 RMK A01 T03550195  RH  039%=      5-min Rain = 0
KMD1 152116Z 05010KT 36/20 A2999 RMK A01 T03550200  RH  040%=      5-min Rain = 0
KMD1 152117Z 04009KT 36/20 A2999 RMK A01 T03590196  RH  038%=      5-min Rain = 0
KMD1 152118Z 05010KT 36/19 A2999 RMK A01 T03610194  RH  038%=      5-min Rain = 0
KMD1 152119Z 05009KT 36/19 A2999 RMK A01 T03580193  RH  038%=      5-min Rain = 0
KMD1 152120Z 05010KT 36/20 A2999 RMK A01 T03550195  RH  039%=      5-min Rain = 0
KMD1 152121Z 05008KT 35/19 A2999 RMK A01 T03540193  RH  039%=      5-min Rain = 0
KMD1 152122Z 06007KT 36/19 A2999 RMK A01 T03550194  RH  039%=      5-min Rain = 0
KMD1 152123Z 05009KT 36/19 A2999 RMK A01 T03580194  RH  038%=      5-min Rain = 0
KMD1 152124Z 05009KT 36/19 A2999 RMK A01 T03590192  RH  038%=      5-min Rain = 0
KMD1 152125Z 05009KT 36/19 A2999 RMK A01 T03590192  RH  038%=      5-min Rain = 0
KMD1 152126Z 04009KT 36/19 A2999 RMK A01 T03580191  RH  038%=      5-min Rain = 0
KMD1 152127Z 04009KT 36/19 A2999 RMK A01 T03560189  RH  037%=      5-min Rain = 0
KMD1 152128Z 04008KT 36/19 A2999 RMK A01 T03550189  RH  038%=      5-min Rain = 0
KMD1 152129Z 05007KT 35/19 A2999 RMK A01 T03540191  RH  038%=      5-min Rain = 0
KMD1 152130Z 03007KT 36/19 A2999 RMK A01 T03570187  RH  037%=      5-min Rain = 0
KMD1 152131Z 06007G14KT 36/19 A2998 RMK A01 T03580187  RH  037%=      5-min Rain = 0
KMD1 152132Z 05004KT 36/18 A2998 RMK A01 T03590184  RH  036%=      5-min Rain = 0
KMD1 152133Z 08004KT 36/19 A2998 RMK A01 T03600185  RH  036%=      5-min Rain = 0
KMD1 152134Z 08007KT 36/19 A2998 RMK A01 T03610186  RH  036%=      5-min Rain = 0
KMD1 152135Z 09006KT 36/19 A2998 RMK A01 T03610185  RH  036%=      5-min Rain = 0
KMD1 152136Z 10004KT 36/19 A2998 RMK A01 T03600186  RH  036%=      5-min Rain = 0
KMD1 152137Z 08005KT 36/19 A2998 RMK A01 T03610185  RH  035%=      5-min Rain = 0
KMD1 152138Z 06006KT 36/18 A2998 RMK A01 T03610184  RH  035%=      5-min Rain = 0
KMD1 152139Z 04004KT 36/18 A2998 RMK A01 T03630180  RH  034%=      5-min Rain = 0
KMD1 152140Z 04005KT 36/18 A2998 RMK A01 T03630179  RH  034%=      5-min Rain = 0
KMD1 152141Z 06006KT 36/18 A2998 RMK A01 T03620182  RH  035%=      5-min Rain = 0
KMD1 152142Z 08008KT 36/18 A2998 RMK A01 T03630182  RH  035%=      5-min Rain = 0
KMD1 152143Z 08009KT 37/18 A2998 RMK A01 T03650177  RH  033%=      5-min Rain = 0
KMD1 152144Z 06006KT 36/17 A2998 RMK A01 T03640173  RH  033%=      5-min Rain = 0
KMD1 152145Z 05004KT 36/17 A2997 RMK A01 T03620173  RH  033%=      5-min Rain = 0
KMD1 152146Z 02003KT 36/17 A2997 RMK A01 T03640169  RH  032%=      5-min Rain = 0
KMD1 152147Z 06003KT 36/17 A2997 RMK A01 T03640174  RH  033%=      5-min Rain = 0
KMD1 152148Z 04003KT 36/18 A2997 RMK A01 T03640176  RH  033%=      5-min Rain = 0
KMD1 152149Z 07004KT 36/18 A2997 RMK A01 T03640177  RH  033%=      5-min Rain = 0
KMD1 152150Z 07006KT 37/18 A2997 RMK A01 T03660184  RH  034%=      5-min Rain = 0
KMD1 152151Z 08007KT 37/18 A2997 RMK A01 T03690184  RH  034%=      5-min Rain = 0
KMD1 152152Z 10010KT 37/18 A2997 RMK A01 T03690182  RH  033%=      5-min Rain = 0
KMD1 152153Z 09009KT 37/18 A2997 RMK A01 T03680177  RH  033%=      5-min Rain = 0
KMD1 152154Z 10010KT 37/18 A2997 RMK A01 T03680179  RH  033%=      5-min Rain = 0
KMD1 152155Z 10009KT 37/18 A2997 RMK A01 T03680176  RH  032%=      5-min Rain = 0
KMD1 152156Z 10005KT 37/17 A2997 RMK A01 T03650174  RH  032%=      5-min Rain = 0
KMD1 152157Z 09004KT 36/18 A2997 RMK A01 T03620176  RH  033%=      5-min Rain = 0
KMD1 152158Z 08006KT 36/18 A2997 RMK A01 T03630178  RH  034%=      5-min Rain = 0
KMD1 152159Z 07006KT 36/18 A2997 RMK A01 T03630182  RH  035%=      5-min Rain = 0
KMD1 152200Z 09010KT 37/18 A2997 RMK A01 T03650181  RH  034%=      5-min Rain = 0
KMD1 152201Z 08009KT 37/18 A2997 RMK A01 T03650178  RH  033%=      5-min Rain = 0
KMD1 152202Z 08007KT 37/18 A2997 RMK A01 T03650178  RH  033%=      5-min Rain = 0
KMD1 152203Z 09006KT 36/18 A2997 RMK A01 T03630177  RH  033%=      5-min Rain = 0
KMD1 152204Z 11004KT 36/18 A2997 RMK A01 T03620179  RH  034%=      5-min Rain = 0
KMD1 152205Z 08007KT 36/18 A2997 RMK A01 T03620179  RH  034%=      5-min Rain = 0
KMD1 152206Z 07004KT 36/18 A2997 RMK A01 T03630178  RH  034%=      5-min Rain = 0
KMD1 152207Z 09007KT 36/18 A2997 RMK A01 T03620179  RH  034%=      5-min Rain = 0
KMD1 152208Z 09008KT 36/18 A2997 RMK A01 T03630175  RH  033%=      5-min Rain = 0
KMD1 152209Z 10007KT 36/18 A2997 RMK A01 T03630175  RH  033%=      5-min Rain = 0
KMD1 152210Z 10006KT 36/17 A2997 RMK A01 T03620174  RH  033%=      5-min Rain = 0
KMD1 152211Z 10007KT 36/18 A2997 RMK A01 T03630176  RH  033%=      5-min Rain = 0
KMD1 152212Z 09006KT 37/18 A2996 RMK A01 T03650175  RH  033%=      5-min Rain = 0
KMD1 152213Z 05006KT 37/18 A2996 RMK A01 T03670176  RH  032%=      5-min Rain = 0
KMD1 152214Z 06009KT 37/17 A2996 RMK A01 T03680173  RH  032%=      5-min Rain = 0
KMD1 152215Z 07007KT 37/18 A2996 RMK A01 T03670175  RH  032%=      5-min Rain = 0
KMD1 152216Z 06009KT 37/17 A2996 RMK A01 T03670171  RH  032%=      5-min Rain = 0
KMD1 152217Z 06006KT 37/17 A2996 RMK A01 T03660171  RH  032%=      5-min Rain = 0
KMD1 152218Z 08007KT 37/17 A2996 RMK A01 T03660170  RH  032%=      5-min Rain = 0
KMD1 152219Z 08006KT 36/17 A2996 RMK A01 T03640168  RH  032%=      5-min Rain = 0
KMD1 152220Z 07006KT 36/17 A2996 RMK A01 T03620168  RH  032%=      5-min Rain = 0
KMD1 152221Z 03004KT 36/17 A2996 RMK A01 T03610168  RH  032%=      5-min Rain = 0
KMD1 152222Z 02005KT 36/17 A2996 RMK A01 T03610168  RH  032%=      5-min Rain = 0
KMD1 152223Z 02003KT 36/17 A2996 RMK A01 T03610168  RH  032%=      5-min Rain = 0
KMD1 152224Z 02003KT 36/17 A2996 RMK A01 T03620169  RH  032%=      5-min Rain = 0
KMD1 152225Z 07005KT 37/17 A2996 RMK A01 T03650170  RH  032%=      5-min Rain = 0
KMD1 152226Z 04005KT 37/17 A2996 RMK A01 T03670168  RH  031%=      5-min Rain = 0
KMD1 152227Z 02004KT 37/17 A2996 RMK A01 T03660167  RH  031%=      5-min Rain = 0
KMD1 152228Z 05005KT 37/17 A2996 RMK A01 T03650167  RH  031%=      5-min Rain = 0
KMD1 152229Z 04004KT 37/17 A2996 RMK A01 T03650167  RH  031%=      5-min Rain = 0
KMD1 152230Z 06003KT 36/17 A2996 RMK A01 T03630168  RH  032%=      5-min Rain = 0
KMD1 152231Z 10006KT 36/17 A2996 RMK A01 T03640170  RH  032%=      5-min Rain = 0
KMD1 152232Z 12008G13KT 37/17 A2996 RMK A01 T03660170  RH  031%=      5-min Rain = 0
KMD1 152233Z 10007G12KT 37/17 A2996 RMK A01 T03680171  RH  031%=      5-min Rain = 0
KMD1 152234Z 10010KT 37/18 A2996 RMK A01 T03680177  RH  033%=      5-min Rain = 0
KMD1 152235Z 09011KT 37/17 A2996 RMK A01 T03660174  RH  032%=      5-min Rain = 0
KMD1 152236Z 10009KT 37/17 A2996 RMK A01 T03650174  RH  033%=      5-min Rain = 0
KMD1 152237Z 10008KT 36/18 A2996 RMK A01 T03630176  RH  033%=      5-min Rain = 0
KMD1 152238Z 09010KT 36/18 A2996 RMK A01 T03640183  RH  035%=      5-min Rain = 0
KMD1 152239Z 09008KT 36/18 A2996 RMK A01 T03630181  RH  034%=      5-min Rain = 0
KMD1 152240Z 12010KT 36/19 A2996 RMK A01 T03610185  RH  036%=      5-min Rain = 0
KMD1 152241Z 11011KT 36/19 A2996 RMK A01 T03600185  RH  036%=      5-min Rain = 0
KMD1 152242Z 08009KT 36/18 A2996 RMK A01 T03620184  RH  035%=      5-min Rain = 0
KMD1 152243Z 07009KT 36/18 A2996 RMK A01 T03640183  RH  035%=      5-min Rain = 0
KMD1 152244Z 08007KT 36/19 A2996 RMK A01 T03630188  RH  036%=      5-min Rain = 0
KMD1 152245Z 09007KT 36/19 A2996 RMK A01 T03620188  RH  036%=      5-min Rain = 0
KMD1 152246Z 10008KT 36/19 A2996 RMK A01 T03630189  RH  036%=      5-min Rain = 0
KMD1 152247Z 09010KT 36/19 A2996 RMK A01 T03640188  RH  036%=      5-min Rain = 0
KMD1 152248Z 10010KT 36/19 A2996 RMK A01 T03620189  RH  036%=      5-min Rain = 0
KMD1 152249Z 10010KT 36/19 A2996 RMK A01 T03600188  RH  036%=      5-min Rain = 0
KMD1 152250Z 10011KT 36/19 A2996 RMK A01 T03590187  RH  036%=      5-min Rain = 0
KMD1 152251Z 09009KT 36/19 A2996 RMK A01 T03600186  RH  036%=      5-min Rain = 0
KMD1 152252Z 09008KT 36/19 A2996 RMK A01 T03610185  RH  036%=      5-min Rain = 0
KMD1 152253Z 10010KT 36/19 A2996 RMK A01 T03600185  RH  036%=      5-min Rain = 0
KMD1 152254Z 09009KT 36/19 A2996 RMK A01 T03590185  RH  036%=      5-min Rain = 0
KMD1 152255Z 10010KT 36/18 A2996 RMK A01 T03590184  RH  036%=      5-min Rain = 0
KMD1 152256Z 10011KT 36/18 A2996 RMK A01 T03590182  RH  036%=      5-min Rain = 0
KMD1 152257Z 10009KT 36/18 A2996 RMK A01 T03570181  RH  035%=      5-min Rain = 0
KMD1 152258Z 09007KT 36/18 A2995 RMK A01 T03570182  RH  036%=      5-min Rain = 0
KMD1 152259Z 11008KT 36/18 A2995 RMK A01 T03570182  RH  036%=      5-min Rain = 0
KMD1 152300Z 12008KT 36/18 A2995 RMK A01 T03590181  RH  035%=      5-min Rain = 0
KMD1 152301Z 11005KT 36/18 A2995 RMK A01 T03590181  RH  035%=      5-min Rain = 0
KMD1 152302Z 08010KT 36/18 A2995 RMK A01 T03590181  RH  035%=      5-min Rain = 0
KMD1 152303Z 08009KT 36/18 A2995 RMK A01 T03600179  RH  034%=      5-min Rain = 0
KMD1 152304Z 08010KT 36/18 A2995 RMK A01 T03610179  RH  034%=      5-min Rain = 0
KMD1 152305Z 06009KT 36/18 A2995 RMK A01 T03620177  RH  034%=      5-min Rain = 0
KMD1 152306Z 06007KT 36/18 A2995 RMK A01 T03600177  RH  034%=      5-min Rain = 0
KMD1 152307Z 05006KT 36/18 A2995 RMK A01 T03590178  RH  034%=      5-min Rain = 0
KMD1 152308Z 06005KT 36/18 A2995 RMK A01 T03600178  RH  034%=      5-min Rain = 0
KMD1 152309Z 05004KT 36/18 A2995 RMK A01 T03600175  RH  034%=      5-min Rain = 0
KMD1 152310Z 08006KT 36/18 A2995 RMK A01 T03600178  RH  034%=      5-min Rain = 0
KMD1 152311Z 09008KT 36/18 A2995 RMK A01 T03600177  RH  034%=      5-min Rain = 0
KMD1 152312Z 10008KT 36/18 A2995 RMK A01 T03610176  RH  034%=      5-min Rain = 0
KMD1 152313Z 10007KT 36/18 A2995 RMK A01 T03610175  RH  033%=      5-min Rain = 0
KMD1 152314Z 10008KT 36/17 A2995 RMK A01 T03600174  RH  034%=      5-min Rain = 0
KMD1 152315Z 11006KT 36/18 A2995 RMK A01 T03590175  RH  034%=      5-min Rain = 0
KMD1 152316Z 11005KT 36/17 A2995 RMK A01 T03590174  RH  034%=      5-min Rain = 0
KMD1 152317Z 10005KT 36/17 A2995 RMK A01 T03590174  RH  034%=      5-min Rain = 0
KMD1 152318Z 10008KT 36/18 A2995 RMK A01 T03590175  RH  034%=      5-min Rain = 0
KMD1 152319Z 11006KT 36/18 A2995 RMK A01 T03600175  RH  034%=      5-min Rain = 0
KMD1 152320Z 12008KT 36/17 A2995 RMK A01 T03610173  RH  033%=      5-min Rain = 0
KMD1 152321Z 12008KT 36/17 A2995 RMK A01 T03620173  RH  033%=      5-min Rain = 0
KMD1 152322Z 13008KT 36/17 A2995 RMK A01 T03600172  RH  033%=      5-min Rain = 0
KMD1 152323Z 13007KT 36/17 A2995 RMK A01 T03600173  RH  033%=      5-min Rain = 0
KMD1 152324Z 12007KT 36/17 A2995 RMK A01 T03600173  RH  033%=      5-min Rain = 0
KMD1 152325Z 12006KT 36/17 A2995 RMK A01 T03600173  RH  033%=      5-min Rain = 0
KMD1 152326Z 11006KT 36/17 A2995 RMK A01 T03600174  RH  033%=      5-min Rain = 0
KMD1 152327Z 10007KT 36/17 A2995 RMK A01 T03610174  RH  033%=      5-min Rain = 0
KMD1 152328Z 11007KT 36/17 A2995 RMK A01 T03610172  RH  033%=      5-min Rain = 0
KMD1 152329Z 10006KT 36/17 A2995 RMK A01 T03600174  RH  033%=      5-min Rain = 0
KMD1 152330Z 10007KT 36/17 A2995 RMK A01 T03610174  RH  033%=      5-min Rain = 0
KMD1 152331Z 10006KT 36/17 A2995 RMK A01 T03600174  RH  033%=      5-min Rain = 0
KMD1 152332Z 10006KT 36/18 A2995 RMK A01 T03590176  RH  034%=      5-min Rain = 0
KMD1 152333Z 11003KT 36/18 A2995 RMK A01 T03590175  RH  034%=      5-min Rain = 0
KMD1 152334Z 13003KT 36/18 A2995 RMK A01 T03580176  RH  034%=      5-min Rain = 0
KMD1 152335Z 10004KT 36/18 A2995 RMK A01 T03580178  RH  035%=      5-min Rain = 0
KMD1 152336Z 12005KT 36/18 A2995 RMK A01 T03590181  RH  035%=      5-min Rain = 0
KMD1 152337Z 10007KT 36/18 A2995 RMK A01 T03600182  RH  035%=      5-min Rain = 0
KMD1 152338Z 11008KT 36/18 A2995 RMK A01 T03600183  RH  035%=      5-min Rain = 0
KMD1 152339Z 12008KT 36/18 A2995 RMK A01 T03590181  RH  035%=      5-min Rain = 0
KMD1 152340Z 12009KT 36/18 A2995 RMK A01 T03590180  RH  035%=      5-min Rain = 0
KMD1 152341Z 11008KT 36/18 A2995 RMK A01 T03580181  RH  035%=      5-min Rain = 0
KMD1 152342Z 10008KT 36/18 A2995 RMK A01 T03580180  RH  035%=      5-min Rain = 0
KMD1 152343Z 10007KT 36/18 A2995 RMK A01 T03580181  RH  035%=      5-min Rain = 0
KMD1 152344Z 09005KT 36/18 A2995 RMK A01 T03580180  RH  035%=      5-min Rain = 0
KMD1 152345Z 11007KT 36/18 A2995 RMK A01 T03570179  RH  035%=      5-min Rain = 0
KMD1 152346Z 10005KT 36/18 A2995 RMK A01 T03560177  RH  035%=      5-min Rain = 0
KMD1 152347Z 10006KT 36/18 A2995 RMK A01 T03560179  RH  035%=      5-min Rain = 0
KMD1 152348Z 09007KT 36/18 A2995 RMK A01 T03580180  RH  035%=      5-min Rain = 0
KMD1 152349Z 10007KT 36/18 A2995 RMK A01 T03580176  RH  034%=      5-min Rain = 0
KMD1 152350Z 09006KT 36/18 A2995 RMK A01 T03580176  RH  034%=      5-min Rain = 0
KMD1 152351Z 07006KT 36/18 A2995 RMK A01 T03560175  RH  034%=      5-min Rain = 0
KMD1 152352Z 08006KT 36/18 A2995 RMK A01 T03560176  RH  035%=      5-min Rain = 0
KMD1 152353Z 09004KT 36/17 A2995 RMK A01 T03560174  RH  034%=      5-min Rain = 0
KMD1 152354Z 11003KT 36/18 A2995 RMK A01 T03550175  RH  035%=      5-min Rain = 0
KMD1 152355Z 11004KT 35/18 A2995 RMK A01 T03540175  RH  035%=      5-min Rain = 0
KMD1 152356Z 11004KT 36/18 A2995 RMK A01 T03550175  RH  035%=      5-min Rain = 0
KMD1 152357Z 09005KT 36/18 A2995 RMK A01 T03550176  RH  035%=      5-min Rain = 0
KMD1 152358Z 09005KT 36/18 A2995 RMK A01 T03560178  RH  035%=      5-min Rain = 0
KMD1 152359Z 10004KT 36/18 A2995 RMK A01 T03560178  RH  035%=      5-min Rain = 0
KMD1 160000Z 10005KT 36/18 A2995 RMK A01 T03560177  RH  035%=      5-min Rain = 0
KMD1 160001Z 08006KT 36/18 A2995 RMK A01 T03560177  RH  035%=      5-min Rain = 0
KMD1 160002Z 06007KT 36/18 A2995 RMK A01 T03560178  RH  035%=      5-min Rain = 0
KMD1 160003Z 08007KT 36/18 A2995 RMK A01 T03560178  RH  035%=      5-min Rain = 0
KMD1 160004Z 08007KT 36/18 A2995 RMK A01 T03560175  RH  034%=      5-min Rain = 0
KMD1 160005Z 09007KT 36/18 A2995 RMK A01 T03560175  RH  034%=      5-min Rain = 0
KMD1 160006Z 07007KT 36/17 A2995 RMK A01 T03550174  RH  034%=      5-min Rain = 0
KMD1 160007Z 07006KT 36/18 A2995 RMK A01 T03550176  RH  035%=      5-min Rain = 0
KMD1 160008Z 06006KT 36/18 A2995 RMK A01 T03550177  RH  035%=      5-min Rain = 0
KMD1 160009Z 06007KT 36/18 A2995 RMK A01 T03550175  RH  035%=      5-min Rain = 0
KMD1 160010Z 05006KT 35/18 A2995 RMK A01 T03540175  RH  035%=      5-min Rain = 0
KMD1 160011Z 05007KT 36/18 A2995 RMK A01 T03550175  RH  035%=      5-min Rain = 0
KMD1 160012Z 06008KT 35/18 A2995 RMK A01 T03540175  RH  035%=      5-min Rain = 0
KMD1 160013Z 06008KT 35/17 A2995 RMK A01 T03530173  RH  034%=      5-min Rain = 0
KMD1 160014Z 06007KT 35/17 A2995 RMK A01 T03530174  RH  035%=      5-min Rain = 0
KMD1 160015Z 06007KT 35/17 A2995 RMK A01 T03530173  RH  035%=      5-min Rain = 0
KMD1 160016Z 06006KT 35/17 A2995 RMK A01 T03520173  RH  035%=      5-min Rain = 0
KMD1 160017Z 06005KT 35/18 A2995 RMK A01 T03520176  RH  035%=      5-min Rain = 0
KMD1 160018Z 07006KT 35/17 A2995 RMK A01 T03520174  RH  035%=      5-min Rain = 0
KMD1 160019Z 07006KT 35/17 A2995 RMK A01 T03520173  RH  035%=      5-min Rain = 0
KMD1 160020Z 07006KT 35/17 A2995 RMK A01 T03530174  RH  035%=      5-min Rain = 0
KMD1 160021Z 07006KT 35/17 A2995 RMK A01 T03530173  RH  034%=      5-min Rain = 0
KMD1 160022Z 08005KT 35/17 A2995 RMK A01 T03520172  RH  034%=      5-min Rain = 0
KMD1 160023Z 08004KT 35/17 A2995 RMK A01 T03520173  RH  035%=      5-min Rain = 0
KMD1 160024Z 07004KT 35/17 A2995 RMK A01 T03520174  RH  035%=      5-min Rain = 0
KMD1 160025Z 08006KT 35/18 A2995 RMK A01 T03520175  RH  035%=      5-min Rain = 0
KMD1 160026Z 08006KT 35/18 A2995 RMK A01 T03520175  RH  035%=      5-min Rain = 0
KMD1 160027Z 08006KT 35/17 A2995 RMK A01 T03520174  RH  035%=      5-min Rain = 0
KMD1 160028Z 07006KT 35/17 A2995 RMK A01 T03510174  RH  035%=      5-min Rain = 0
KMD1 160029Z 07005KT 35/17 A2995 RMK A01 T03510173  RH  035%=      5-min Rain = 0
KMD1 160030Z 07005KT 35/17 A2995 RMK A01 T03510174  RH  035%=      5-min Rain = 0
KMD1 160031Z 06006KT 35/18 A2995 RMK A01 T03500175  RH  035%=      5-min Rain = 0
KMD1 160032Z 07007KT 35/17 A2995 RMK A01 T03500174  RH  035%=      5-min Rain = 0
KMD1 160033Z 07005KT 35/17 A2995 RMK A01 T03500174  RH  035%=      5-min Rain = 0
KMD1 160034Z 10004KT 35/18 A2995 RMK A01 T03490176  RH  036%=      5-min Rain = 0
KMD1 160035Z 09006KT 35/18 A2995 RMK A01 T03490176  RH  036%=      5-min Rain = 0
KMD1 160036Z 10007KT 35/18 A2995 RMK A01 T03490175  RH  036%=      5-min Rain = 0
KMD1 160037Z 10006KT 35/17 A2995 RMK A01 T03490173  RH  035%=      5-min Rain = 0
KMD1 160038Z 10005KT 35/17 A2995 RMK A01 T03480173  RH  035%=      5-min Rain = 0
KMD1 160039Z 10005KT 35/17 A2995 RMK A01 T03480173  RH  035%=      5-min Rain = 0
KMD1 160040Z 10005KT 35/17 A2995 RMK A01 T03470174  RH  036%=      5-min Rain = 0
KMD1 160041Z 10005KT 35/17 A2995 RMK A01 T03470173  RH  036%=      5-min Rain = 0
KMD1 160042Z 09004KT 35/17 A2995 RMK A01 T03470174  RH  036%=      5-min Rain = 0
KMD1 160043Z 09005KT 35/18 A2995 RMK A01 T03470175  RH  036%=      5-min Rain = 0
KMD1 160044Z 10004KT 35/17 A2996 RMK A01 T03460174  RH  036%=      5-min Rain = 0
KMD1 160045Z 10005KT 35/18 A2996 RMK A01 T03450175  RH  036%=      5-min Rain = 0
KMD1 160046Z 10005KT 35/18 A2996 RMK A01 T03450176  RH  037%=      5-min Rain = 0
KMD1 160047Z 10005KT 34/18 A2996 RMK A01 T03440175  RH  037%=      5-min Rain = 0
KMD1 160048Z 10004KT 34/18 A2996 RMK A01 T03440175  RH  037%=      5-min Rain = 0
KMD1 160049Z 10004KT 34/18 A2996 RMK A01 T03430176  RH  037%=      5-min Rain = 0
KMD1 160050Z 09005KT 34/18 A2996 RMK A01 T03420176  RH  037%=      5-min Rain = 0
KMD1 160051Z 09005KT 34/18 A2996 RMK A01 T03420177  RH  038%=      5-min Rain = 0
KMD1 160052Z 10004KT 34/18 A2996 RMK A01 T03410177  RH  038%=      5-min Rain = 0
KMD1 160053Z 10005KT 34/18 A2996 RMK A01 T03400177  RH  038%=      5-min Rain = 0
KMD1 160054Z 09006KT 34/18 A2996 RMK A01 T03390176  RH  038%=      5-min Rain = 0
KMD1 160055Z 09006KT 34/18 A2996 RMK A01 T03390175  RH  038%=      5-min Rain = 0
KMD1 160056Z 09006KT 34/18 A2996 RMK A01 T03390176  RH  038%=      5-min Rain = 0
KMD1 160057Z 09006KT 34/18 A2996 RMK A01 T03380175  RH  038%=      5-min Rain = 0
KMD1 160058Z 09005KT 34/18 A2996 RMK A01 T03370175  RH  038%=      5-min Rain = 0
KMD1 160059Z 09005KT 34/18 A2996 RMK A01 T03360175  RH  038%=      5-min Rain = 0
KMD1 160100Z 10005KT 34/18 A2996 RMK A01 T03360175  RH  038%=      5-min Rain = 0
KMD1 160101Z 09005KT 34/18 A2996 RMK A01 T03350175  RH  039%=      5-min Rain = 0
KMD1 160102Z 10004KT 33/18 A2996 RMK A01 T03340176  RH  039%=      5-min Rain = 0
KMD1 160103Z 10004KT 33/18 A2996 RMK A01 T03330175  RH  039%=      5-min Rain = 0
KMD1 160104Z 10004KT 33/18 A2996 RMK A01 T03330176  RH  039%=      5-min Rain = 0
KMD1 160105Z 10004KT 33/18 A2996 RMK A01 T03320176  RH  039%=      5-min Rain = 0
KMD1 160106Z 09004KT 33/18 A2996 RMK A01 T03310176  RH  040%=      5-min Rain = 0
KMD1 160107Z 09004KT 33/18 A2996 RMK A01 T03310176  RH  040%=      5-min Rain = 0
KMD1 160108Z 10004KT 33/18 A2996 RMK A01 T03300176  RH  040%=      5-min Rain = 0
KMD1 160109Z 10004KT 33/18 A2996 RMK A01 T03290176  RH  040%=      5-min Rain = 0
KMD1 160110Z 10004KT 33/18 A2996 RMK A01 T03290176  RH  040%=      5-min Rain = 0
KMD1 160111Z 10004KT 33/18 A2996 RMK A01 T03280176  RH  040%=      5-min Rain = 0
KMD1 160112Z 09004KT 33/18 A2996 RMK A01 T03270176  RH  041%=      5-min Rain = 0
KMD1 160113Z 09005KT 33/18 A2996 RMK A01 T03260176  RH  041%=      5-min Rain = 0
KMD1 160114Z 10004KT 33/18 A2996 RMK A01 T03260176  RH  041%=      5-min Rain = 0
KMD1 160115Z 10004KT 33/18 A2996 RMK A01 T03250176  RH  041%=      5-min Rain = 0
KMD1 160116Z 10004KT 32/18 A2996 RMK A01 T03240176  RH  041%=      5-min Rain = 0
KMD1 160117Z 10004KT 32/18 A2996 RMK A01 T03240176  RH  041%=      5-min Rain = 0
KMD1 160118Z 10004KT 32/18 A2996 RMK A01 T03230176  RH  041%=      5-min Rain = 0
KMD1 160119Z 10004KT 32/18 A2996 RMK A01 T03230176  RH  042%=      5-min Rain = 0
KMD1 160120Z 11004KT 32/18 A2996 RMK A01 T03220176  RH  042%=      5-min Rain = 0
KMD1 160121Z 11004KT 32/18 A2996 RMK A01 T03220176  RH  042%=      5-min Rain = 0
KMD1 160122Z 11004KT 32/18 A2996 RMK A01 T03200176  RH  042%=      5-min Rain = 0
KMD1 160123Z 11004KT 32/18 A2996 RMK A01 T03190176  RH  042%=      5-min Rain = 0
KMD1 160124Z 11004KT 32/18 A2996 RMK A01 T03180176  RH  043%=      5-min Rain = 0
KMD1 160125Z 12004KT 32/18 A2996 RMK A01 T03180176  RH  043%=      5-min Rain = 0
KMD1 160126Z 12004KT 32/18 A2996 RMK A01 T03170176  RH  043%=      5-min Rain = 0
KMD1 160127Z 12004KT 32/18 A2997 RMK A01 T03160175  RH  043%=      5-min Rain = 0
KMD1 160128Z 13004KT 32/18 A2997 RMK A01 T03150175  RH  043%=      5-min Rain = 0
KMD1 160129Z 14004KT 31/18 A2997 RMK A01 T03140175  RH  043%=      5-min Rain = 0
KMD1 160130Z 15004KT 31/17 A2997 RMK A01 T03140174  RH  043%=      5-min Rain = 0
KMD1 160131Z 16004KT 31/18 A2997 RMK A01 T03140176  RH  044%=      5-min Rain = 0
KMD1 160132Z 16004KT 31/18 A2997 RMK A01 T03140178  RH  044%=      5-min Rain = 0
KMD1 160133Z 16004KT 31/18 A2997 RMK A01 T03140180  RH  045%=      5-min Rain = 0
KMD1 160134Z 16004KT 31/18 A2997 RMK A01 T03140181  RH  045%=      5-min Rain = 0
KMD1 160135Z 16004KT 31/18 A2997 RMK A01 T03140180  RH  045%=      5-min Rain = 0
KMD1 160136Z 16004KT 31/18 A2997 RMK A01 T03130180  RH  045%=      5-min Rain = 0
KMD1 160137Z 17005KT 31/18 A2997 RMK A01 T03130180  RH  045%=      5-min Rain = 0
KMD1 160138Z 17005KT 31/18 A2997 RMK A01 T03130179  RH  045%=      5-min Rain = 0
KMD1 160139Z 17007KT 31/18 A2997 RMK A01 T03130180  RH  045%=      5-min Rain = 0
KMD1 160140Z 16007KT 31/18 A2997 RMK A01 T03140182  RH  046%=      5-min Rain = 0
KMD1 160141Z 16007KT 32/19 A2997 RMK A01 T03160186  RH  046%=      5-min Rain = 0
KMD1 160142Z 16007KT 32/19 A2997 RMK A01 T03170187  RH  046%=      5-min Rain = 0
KMD1 160143Z 16006KT 32/19 A2997 RMK A01 T03190187  RH  046%=      5-min Rain = 0
KMD1 160144Z 16006KT 32/19 A2997 RMK A01 T03190188  RH  046%=      5-min Rain = 0
KMD1 160145Z 15006KT 32/19 A2997 RMK A01 T03200190  RH  046%=      5-min Rain = 0
KMD1 160146Z 15006KT 32/19 A2997 RMK A01 T03210191  RH  046%=      5-min Rain = 0
KMD1 160147Z 17007KT 32/19 A2997 RMK A01 T03210192  RH  046%=      5-min Rain = 0
KMD1 160148Z 16007KT 32/19 A2997 RMK A01 T03220193  RH  047%=      5-min Rain = 0
KMD1 160149Z 16007KT 32/19 A2997 RMK A01 T03220194  RH  047%=      5-min Rain = 0
KMD1 160150Z 16007KT 32/19 A2997 RMK A01 T03210194  RH  047%=      5-min Rain = 0
KMD1 160151Z 16006KT 32/19 A2997 RMK A01 T03210194  RH  047%=      5-min Rain = 0
KMD1 160152Z 15006KT 32/19 A2997 RMK A01 T03210194  RH  047%=      5-min Rain = 0
KMD1 160153Z 16006KT 32/20 A2997 RMK A01 T03210195  RH  047%=      5-min Rain = 0
KMD1 160154Z 16005KT 32/20 A2997 RMK A01 T03210195  RH  047%=      5-min Rain = 0
KMD1 160155Z 17007KT 32/20 A2998 RMK A01 T03200195  RH  048%=      5-min Rain = 0
KMD1 160156Z 17007KT 32/20 A2998 RMK A01 T03190195  RH  048%=      5-min Rain = 0
KMD1 160157Z 16005KT 32/20 A2997 RMK A01 T03190195  RH  048%=      5-min Rain = 0
KMD1 160158Z 17005KT 32/20 A2997 RMK A01 T03180195  RH  048%=      5-min Rain = 0
KMD1 160159Z 18004KT 32/20 A2997 RMK A01 T03170196  RH  049%=      5-min Rain = 0
KMD1 160200Z 18005KT 32/20 A2997 RMK A01 T03170196  RH  049%=      5-min Rain = 0
KMD1 160201Z 17004KT 32/20 A2997 RMK A01 T03160196  RH  049%=      5-min Rain = 0
KMD1 160202Z 17006KT 32/20 A2997 RMK A01 T03150195  RH  049%=      5-min Rain = 0
KMD1 160203Z 17007KT 32/20 A2997 RMK A01 T03150196  RH  049%=      5-min Rain = 0
KMD1 160204Z 18006KT 32/20 A2997 RMK A01 T03150195  RH  049%=      5-min Rain = 0
KMD1 160205Z 17006KT 31/20 A2998 RMK A01 T03140196  RH  049%=      5-min Rain = 0
KMD1 160206Z 17006KT 31/20 A2998 RMK A01 T03140195  RH  049%=      5-min Rain = 0
KMD1 160207Z 17006KT 31/20 A2998 RMK A01 T03130195  RH  050%=      5-min Rain = 0
KMD1 160208Z 17006KT 31/20 A2998 RMK A01 T03120195  RH  050%=      5-min Rain = 0
KMD1 160209Z 17006KT 31/20 A2998 RMK A01 T03120195  RH  050%=      5-min Rain = 0
KMD1 160210Z 18007KT 31/20 A2998 RMK A01 T03110195  RH  050%=      5-min Rain = 0
KMD1 160211Z 17006KT 31/20 A2998 RMK A01 T03110196  RH  050%=      5-min Rain = 0
KMD1 160212Z 18004KT 31/20 A2998 RMK A01 T03110195  RH  050%=      5-min Rain = 0
KMD1 160213Z 18004KT 31/20 A2998 RMK A01 T03110195  RH  050%=      5-min Rain = 0
KMD1 160214Z 18005KT 31/20 A2998 RMK A01 T03100195  RH  051%=      5-min Rain = 0
KMD1 160215Z 18005KT 31/20 A2998 RMK A01 T03090196  RH  051%=      5-min Rain = 0
KMD1 160216Z 17005KT 31/20 A2998 RMK A01 T03090195  RH  051%=      5-min Rain = 0
KMD1 160217Z 17005KT 31/20 A2998 RMK A01 T03080195  RH  051%=      5-min Rain = 0
KMD1 160218Z 18005KT 31/20 A2998 RMK A01 T03080195  RH  051%=      5-min Rain = 0
KMD1 160219Z 18005KT 31/20 A2998 RMK A01 T03070195  RH  051%=      5-min Rain = 0
KMD1 160220Z 18005KT 31/20 A2998 RMK A01 T03070195  RH  051%=      5-min Rain = 0
KMD1 160221Z 17005KT 31/20 A2998 RMK A01 T03060196  RH  052%=      5-min Rain = 0
KMD1 160222Z 18004KT 31/20 A2998 RMK A01 T03060195  RH  052%=      5-min Rain = 0
KMD1 160223Z 18005KT 31/20 A2998 RMK A01 T03050195  RH  052%=      5-min Rain = 0
KMD1 160224Z 17004KT 30/20 A2998 RMK A01 T03040195  RH  052%=      5-min Rain = 0
KMD1 160225Z 18004KT 30/20 A2998 RMK A01 T03040195  RH  052%=      5-min Rain = 0
KMD1 160226Z 18004KT 30/20 A2998 RMK A01 T03030195  RH  052%=      5-min Rain = 0
KMD1 160227Z 18003KT 30/20 A2998 RMK A01 T03020195  RH  053%=      5-min Rain = 0
KMD1 160228Z 17004KT 30/20 A2998 RMK A01 T03020195  RH  053%=      5-min Rain = 0
KMD1 160229Z 18005KT 30/20 A2998 RMK A01 T03010195  RH  053%=      5-min Rain = 0
KMD1 160230Z 18005KT 30/20 A2998 RMK A01 T03010195  RH  053%=      5-min Rain = 0
KMD1 160231Z 18004KT 30/19 A2998 RMK A01 T03010194  RH  053%=      5-min Rain = 0
KMD1 160232Z 18004KT 30/19 A2998 RMK A01 T03010194  RH  053%=      5-min Rain = 0
KMD1 160233Z 18005KT 30/20 A2998 RMK A01 T03010195  RH  053%=      5-min Rain = 0
KMD1 160234Z 18004KT 30/20 A2998 RMK A01 T03010195  RH  053%=      5-min Rain = 0
KMD1 160235Z 17004KT 30/20 A2998 RMK A01 T03000195  RH  053%=      5-min Rain = 0
KMD1 160236Z 18004KT 30/19 A2998 RMK A01 T03000194  RH  053%=      5-min Rain = 0
KMD1 160237Z 18003KT 30/20 A2999 RMK A01 T03000195  RH  053%=      5-min Rain = 0
KMD1 160238Z 19003KT 30/20 A2999 RMK A01 T03000195  RH  053%=      5-min Rain = 0
KMD1 160239Z 18003KT 30/20 A2999 RMK A01 T02990195  RH  053%=      5-min Rain = 0
KMD1 160240Z 18003KT 30/20 A2999 RMK A01 T02990195  RH  054%=      5-min Rain = 0
KMD1 160241Z 18004KT 30/19 A2999 RMK A01 T02980194  RH  054%=      5-min Rain = 0
KMD1 160242Z 17003KT 30/19 A2999 RMK A01 T02980194  RH  054%=      5-min Rain = 0
KMD1 160243Z 17002KT 30/19 A2999 RMK A01 T02980194  RH  054%=      5-min Rain = 0
KMD1 160244Z 17003KT 30/20 A2999 RMK A01 T02970195  RH  054%=      5-min Rain = 0
KMD1 160245Z 18003KT 30/19 A2999 RMK A01 T02970194  RH  054%=      5-min Rain = 0
KMD1 160246Z 18003KT 30/19 A2999 RMK A01 T02960194  RH  054%=      5-min Rain = 0
KMD1 160247Z 17003KT 30/20 A2999 RMK A01 T02960195  RH  055%=      5-min Rain = 0
KMD1 160248Z 18003KT 30/19 A2999 RMK A01 T02950194  RH  055%=      5-min Rain = 0
KMD1 160249Z 17003KT 30/19 A2999 RMK A01 T02950194  RH  055%=      5-min Rain = 0
KMD1 160250Z 17003KT 29/19 A2999 RMK A01 T02940194  RH  055%=      5-min Rain = 0
KMD1 160251Z 18003KT 29/20 A2999 RMK A01 T02940195  RH  055%=      5-min Rain = 0
KMD1 160252Z 18002KT 29/19 A2999 RMK A01 T02940194  RH  055%=      5-min Rain = 0
KMD1 160253Z 18003KT 29/20 A2999 RMK A01 T02940195  RH  055%=      5-min Rain = 0
KMD1 160254Z 18003KT 29/19 A2999 RMK A01 T02930194  RH  055%=      5-min Rain = 0
KMD1 160255Z 18002KT 29/19 A2999 RMK A01 T02930194  RH  055%=      5-min Rain = 0
KMD1 160256Z 19003KT 29/19 A2999 RMK A01 T02920194  RH  056%=      5-min Rain = 0
KMD1 160257Z 19003KT 29/19 A2999 RMK A01 T02920194  RH  056%=      5-min Rain = 0
KMD1 160258Z 20002KT 29/20 A2999 RMK A01 T02920195  RH  056%=      5-min Rain = 0
KMD1 160259Z 19002KT 29/20 A2999 RMK A01 T02910195  RH  056%=      5-min Rain = 0
KMD1 160300Z 18002KT 29/20 A2999 RMK A01 T02910195  RH  056%=      5-min Rain = 0
KMD1 160301Z 19003KT 29/20 A2999 RMK A01 T02900195  RH  056%=      5-min Rain = 0
KMD1 160302Z 19003KT 29/20 A2999 RMK A01 T02900195  RH  057%=      5-min Rain = 0
KMD1 160303Z 18003KT 29/20 A2999 RMK A01 T02900195  RH  057%=      5-min Rain = 0
KMD1 160304Z 18003KT 29/20 A2999 RMK A01 T02900195  RH  057%=      5-min Rain = 0
KMD1 160305Z 19002KT 29/20 A2999 RMK A01 T02890195  RH  057%=      5-min Rain = 0
KMD1 160306Z 20002KT 29/20 A2999 RMK A01 T02890195  RH  057%=      5-min Rain = 0
KMD1 160307Z 20002KT 29/20 A2999 RMK A01 T02890195  RH  057%=      5-min Rain = 0
KMD1 160308Z 20001KT 29/20 A2999 RMK A01 T02880195  RH  057%=      5-min Rain = 0
KMD1 160309Z 20002KT 29/20 A2999 RMK A01 T02880195  RH  057%=      5-min Rain = 0
KMD1 160310Z 20002KT 29/20 A2999 RMK A01 T02870195  RH  058%=      5-min Rain = 0
KMD1 160311Z 19002KT 29/20 A2999 RMK A01 T02860195  RH  058%=      5-min Rain = 0
KMD1 160312Z 20000KT 29/20 A2999 RMK A01 T02860195  RH  058%=      5-min Rain = 0
KMD1 160313Z 20001KT 29/20 A2999 RMK A01 T02850195  RH  058%=      5-min Rain = 0
KMD1 160314Z 18001KT 29/20 A2999 RMK A01 T02850195  RH  058%=      5-min Rain = 0
KMD1 160315Z 17002KT 28/20 A2999 RMK A01 T02840195  RH  058%=      5-min Rain = 0
KMD1 160316Z 21001KT 28/20 A2999 RMK A01 T02840195  RH  058%=      5-min Rain = 0
KMD1 160317Z 18001KT 28/19 A2999 RMK A01 T02840194  RH  058%=      5-min Rain = 0
KMD1 160318Z 20001KT 28/20 A2999 RMK A01 T02840195  RH  058%=      5-min Rain = 0
KMD1 160319Z 23001KT 28/19 A30 RMK A01 T02840194  RH  058%=      5-min Rain = 0
KMD1 160320Z 24001KT 28/19 A30 RMK A01 T02830194  RH  058%=      5-min Rain = 0
KMD1 160321Z 23001KT 28/19 A30 RMK A01 T02830194  RH  059%=      5-min Rain = 0
KMD1 160322Z 21001KT 28/19 A30 RMK A01 T02820194  RH  059%=      5-min Rain = 0
KMD1 160323Z 22002KT 28/19 A30 RMK A01 T02820193  RH  059%=      5-min Rain = 0
KMD1 160324Z 23001KT 28/19 A30 RMK A01 T02810193  RH  059%=      5-min Rain = 0
KMD1 160325Z 22002KT 28/19 A30 RMK A01 T02800193  RH  059%=      5-min Rain = 0
KMD1 160326Z 22001KT 28/19 A30 RMK A01 T02800193  RH  059%=      5-min Rain = 0
KMD1 160327Z 23001KT 28/19 A30 RMK A01 T02800193  RH  059%=      5-min Rain = 0
KMD1 160328Z 25001KT 28/19 A30 RMK A01 T02790193  RH  059%=      5-min Rain = 0
KMD1 160329Z 24001KT 28/19 A30 RMK A01 T02790193  RH  060%=      5-min Rain = 0
KMD1 160330Z 27001KT 28/19 A30 RMK A01 T02790193  RH  060%=      5-min Rain = 0
KMD1 160331Z 26001KT 28/19 A30 RMK A01 T02780192  RH  060%=      5-min Rain = 0
KMD1 160332Z 25002KT 28/19 A30 RMK A01 T02770192  RH  060%=      5-min Rain = 0
KMD1 160333Z 25002KT 28/19 A30 RMK A01 T02770192  RH  060%=      5-min Rain = 0
KMD1 160334Z 25002KT 28/19 A30 RMK A01 T02770193  RH  060%=      5-min Rain = 0
KMD1 160335Z 24002KT 28/19 A30 RMK A01 T02760193  RH  060%=      5-min Rain = 0
KMD1 160336Z 25001KT 28/19 A30 RMK A01 T02760193  RH  060%=      5-min Rain = 0
KMD1 160337Z 25001KT 28/19 A30 RMK A01 T02760192  RH  060%=      5-min Rain = 0
KMD1 160338Z 25001KT 28/19 A30 RMK A01 T02750192  RH  061%=      5-min Rain = 0
KMD1 160339Z 26001KT 28/19 A30 RMK A01 T02750193  RH  061%=      5-min Rain = 0
KMD1 160340Z 26002KT 28/19 A30 RMK A01 T02750192  RH  061%=      5-min Rain = 0
KMD1 160341Z 26002KT 27/19 A30 RMK A01 T02740192  RH  061%=      5-min Rain = 0
KMD1 160342Z 26002KT 27/19 A30 RMK A01 T02740192  RH  061%=      5-min Rain = 0
KMD1 160343Z 26002KT 27/19 A30 RMK A01 T02730192  RH  061%=      5-min Rain = 0
KMD1 160344Z 26002KT 27/19 A30 RMK A01 T02720192  RH  061%=      5-min Rain = 0
KMD1 160345Z 25002KT 27/19 A30 RMK A01 T02720192  RH  062%=      5-min Rain = 0
KMD1 160346Z 24002KT 27/19 A30 RMK A01 T02710192  RH  062%=      5-min Rain = 0
KMD1 160347Z 24002KT 27/19 A30 RMK A01 T02700192  RH  062%=      5-min Rain = 0
KMD1 160348Z 24002KT 27/19 A30 RMK A01 T02700192  RH  062%=      5-min Rain = 0
KMD1 160349Z 24002KT 27/19 A30 RMK A01 T02700192  RH  062%=      5-min Rain = 0
KMD1 160350Z 24001KT 27/19 A30 RMK A01 T02700192  RH  063%=      5-min Rain = 0
KMD1 160351Z 24001KT 27/19 A30 RMK A01 T02690192  RH  063%=      5-min Rain = 0
KMD1 160352Z 24001KT 27/19 A30 RMK A01 T02700193  RH  063%=      5-min Rain = 0
KMD1 160353Z 24002KT 27/19 A30 RMK A01 T02700192  RH  063%=      5-min Rain = 0
KMD1 160354Z 25001KT 27/19 A30 RMK A01 T02690192  RH  063%=      5-min Rain = 0
KMD1 160355Z 25001KT 27/19 A30 RMK A01 T02700193  RH  063%=      5-min Rain = 0
KMD1 160356Z 26001KT 27/19 A30 RMK A01 T02690192  RH  063%=      5-min Rain = 0
KMD1 160357Z 26001KT 27/19 A30 RMK A01 T02700193  RH  063%=      5-min Rain = 0
KMD1 160358Z 26001KT 27/19 A30 RMK A01 T02690192  RH  063%=      5-min Rain = 0
KMD1 160359Z 28001KT 27/19 A30 RMK A01 T02690193  RH  063%=      5-min Rain = 0
KMD1 160400Z 27000KT 27/19 A30 RMK A01 T02700193  RH  063%=      5-min Rain = 0
KMD1 160401Z 29001KT 27/19 A30 RMK A01 T02700193  RH  063%=      5-min Rain = 0
KMD1 160402Z 30001KT 27/19 A30 RMK A01 T02700194  RH  063%=      5-min Rain = 0
KMD1 160403Z 32001KT 27/20 A30 RMK A01 T02690196  RH  064%=      5-min Rain = 0
KMD1 160404Z 32001KT 27/20 A30 RMK A01 T02660196  RH  065%=      5-min Rain = 0
KMD1 160405Z 33001KT 26/20 A30 RMK A01 T02640195  RH  066%=      5-min Rain = 0
KMD1 160406Z 33001KT 26/20 A30 RMK A01 T02630195  RH  066%=      5-min Rain = 0
KMD1 160407Z 33001KT 26/20 A30 RMK A01 T02630195  RH  066%=      5-min Rain = 0
KMD1 160408Z 32001KT 26/19 A3001 RMK A01 T02630194  RH  066%=      5-min Rain = 0
KMD1 160409Z 33001KT 26/19 A3001 RMK A01 T02640193  RH  065%=      5-min Rain = 0
KMD1 160410Z 32001KT 27/19 A3001 RMK A01 T02650193  RH  065%=      5-min Rain = 0
KMD1 160411Z 33001KT 27/19 A3001 RMK A01 T02660193  RH  064%=      5-min Rain = 0
KMD1 160412Z 34001KT 27/19 A3001 RMK A01 T02670193  RH  064%=      5-min Rain = 0
KMD1 160413Z 34001KT 27/19 A3001 RMK A01 T02690194  RH  063%=      5-min Rain = 0
KMD1 160414Z 35001KT 27/19 A3001 RMK A01 T02690193  RH  063%=      5-min Rain = 0
KMD1 160415Z 36001KT 27/19 A3001 RMK A01 T02700193  RH  063%=      5-min Rain = 0
KMD1 160416Z 36001KT 27/19 A3001 RMK A01 T02700193  RH  063%=      5-min Rain = 0
KMD1 160417Z 35001KT 27/19 A3001 RMK A01 T02710193  RH  062%=      5-min Rain = 0
KMD1 160418Z 35001KT 27/19 A3001 RMK A01 T02710193  RH  062%=      5-min Rain = 0
KMD1 160419Z 35001KT 27/19 A3001 RMK A01 T02700193  RH  063%=      5-min Rain = 0
KMD1 160420Z 35001KT 27/19 A3001 RMK A01 T02700193  RH  063%=      5-min Rain = 0
KMD1 160421Z 35001KT 27/19 A3001 RMK A01 T02700194  RH  063%=      5-min Rain = 0
KMD1 160422Z 34001KT 27/19 A3001 RMK A01 T02700193  RH  063%=      5-min Rain = 0
KMD1 160423Z 34001KT 27/19 A3001 RMK A01 T02700193  RH  063%=      5-min Rain = 0
KMD1 160424Z 33001KT 27/19 A3001 RMK A01 T02700193  RH  063%=      5-min Rain = 0
KMD1 160425Z 31000KT 27/19 A3001 RMK A01 T02710193  RH  063%=      5-min Rain = 0
KMD1 160426Z 00000KT 27/19 A3001 RMK A01 T02710193  RH  063%=      5-min Rain = 0
KMD1 160427Z 00000KT 27/19 A3001 RMK A01 T02710192  RH  062%=      5-min Rain = 0
KMD1 160428Z 26000KT 27/19 A3001 RMK A01 T02690191  RH  063%=      5-min Rain = 0
KMD1 160429Z 21000KT 27/19 A3001 RMK A01 T02680192  RH  063%=      5-min Rain = 0
KMD1 160430Z 22000KT 27/19 A3001 RMK A01 T02670192  RH  064%=      5-min Rain = 0
KMD1 160431Z 20000KT 27/19 A3001 RMK A01 T02670193  RH  064%=      5-min Rain = 0
KMD1 160432Z 23001KT 27/19 A3001 RMK A01 T02670192  RH  063%=      5-min Rain = 0
KMD1 160433Z 23000KT 27/19 A3001 RMK A01 T02660192  RH  064%=      5-min Rain = 0
KMD1 160434Z 22001KT 27/19 A3001 RMK A01 T02660192  RH  064%=      5-min Rain = 0
KMD1 160435Z 30000KT 27/19 A3001 RMK A01 T02650190  RH  063%=      5-min Rain = 0
KMD1 160436Z 00000KT 26/19 A3001 RMK A01 T02620191  RH  065%=      5-min Rain = 0
KMD1 160437Z 00000KT 26/19 A3001 RMK A01 T02600192  RH  066%=      5-min Rain = 0
KMD1 160438Z 03001KT 26/19 A3001 RMK A01 T02590194  RH  067%=      5-min Rain = 0
KMD1 160439Z 02001KT 26/19 A3001 RMK A01 T02580194  RH  068%=      5-min Rain = 0
KMD1 160440Z 06001KT 26/19 A3001 RMK A01 T02570194  RH  068%=      5-min Rain = 0
KMD1 160441Z 04001KT 26/19 A3001 RMK A01 T02560194  RH  068%=      5-min Rain = 0
KMD1 160442Z 03001KT 26/19 A3001 RMK A01 T02560193  RH  068%=      5-min Rain = 0
KMD1 160443Z 03000KT 26/19 A3001 RMK A01 T02550193  RH  068%=      5-min Rain = 0
KMD1 160444Z 35000KT 26/19 A3001 RMK A01 T02550194  RH  069%=      5-min Rain = 0
KMD1 160445Z 35000KT 26/19 A3001 RMK A01 T02550193  RH  069%=      5-min Rain = 0
KMD1 160446Z 05000KT 26/19 A3001 RMK A01 T02550194  RH  069%=      5-min Rain = 0
KMD1 160447Z 04000KT 25/19 A3001 RMK A01 T02540193  RH  069%=      5-min Rain = 0
KMD1 160448Z 00000KT 25/19 A3001 RMK A01 T02540193  RH  069%=      5-min Rain = 0
KMD1 160449Z 04001KT 25/19 A3001 RMK A01 T02540193  RH  069%=      5-min Rain = 0
KMD1 160450Z 04001KT 25/19 A3001 RMK A01 T02540194  RH  069%=      5-min Rain = 0
KMD1 160451Z 04002KT 25/19 A3001 RMK A01 T02530193  RH  069%=      5-min Rain = 0
KMD1 160452Z 04002KT 25/19 A3001 RMK A01 T02530193  RH  070%=      5-min Rain = 0
KMD1 160453Z 04002KT 25/19 A3002 RMK A01 T02520194  RH  070%=      5-min Rain = 0
KMD1 160454Z 05002KT 25/19 A3002 RMK A01 T02510193  RH  070%=      5-min Rain = 0
KMD1 160455Z 04001KT 25/19 A3002 RMK A01 T02510193  RH  070%=      5-min Rain = 0
KMD1 160456Z 04001KT 25/19 A3002 RMK A01 T02490193  RH  071%=      5-min Rain = 0
KMD1 160457Z 05001KT 25/19 A3002 RMK A01 T02490194  RH  071%=      5-min Rain = 0
KMD1 160458Z 04001KT 25/19 A3002 RMK A01 T02490194  RH  071%=      5-min Rain = 0
KMD1 160459Z 06001KT 25/19 A3002 RMK A01 T02490194  RH  071%=      5-min Rain = 0

Page generated in 0.154 seconds.